<?xml version="1.0" encoding="UTF-8" standalone="no" ?>
<gpx xmlns="http://www.topografix.com/GPX/1/1" xmlns:xsi="http://www.w3.org/2001/XMLSchema-instance" xsi:schemaLocation="http://www.topografix.com/GPX/1/1 http://www.topografix.com/GPX/1/1/gpx.xsd" version="1.1" creator="VisuGPX - https://www.visugpx.com">
  <metadata>
    <name>Marche ADEPS Biesme sous thuin</name>
    <desc><![CDATA[Marche ADEPS du 23 avril 2017 à Biesmes-sous-Thuin]]></desc>
  </metadata>
  <trk>
    <name><![CDATA[2017-04-23 14:20:44]]></name>
    <trkseg>
      <trkpt lat="50.32231" lon="4.30883">
        <ele>268.35</ele>
        <time>2017-04-23T09:08:16Z</time>
      </trkpt>
      <trkpt lat="50.32231" lon="4.30882">
        <ele>268.35</ele>
        <time>2017-04-23T09:08:17Z</time>
      </trkpt>
      <trkpt lat="50.32231" lon="4.3088">
        <ele>155.39</ele>
        <time>2017-04-23T09:08:20Z</time>
      </trkpt>
      <trkpt lat="50.32231" lon="4.30879">
        <ele>153.47</ele>
        <time>2017-04-23T09:08:24Z</time>
      </trkpt>
      <trkpt lat="50.3224" lon="4.30871">
        <ele>153.47</ele>
        <time>2017-04-23T09:08:40Z</time>
      </trkpt>
      <trkpt lat="50.32238" lon="4.3086">
        <ele>153.47</ele>
        <time>2017-04-23T09:08:46Z</time>
      </trkpt>
      <trkpt lat="50.32231" lon="4.30856">
        <ele>153.47</ele>
        <time>2017-04-23T09:08:53Z</time>
      </trkpt>
      <trkpt lat="50.32221" lon="4.30863">
        <ele>152.03</ele>
        <time>2017-04-23T09:09:03Z</time>
      </trkpt>
      <trkpt lat="50.32207" lon="4.30875">
        <ele>148.66</ele>
        <time>2017-04-23T09:09:18Z</time>
      </trkpt>
      <trkpt lat="50.32201" lon="4.30882">
        <ele>148.18</ele>
        <time>2017-04-23T09:09:24Z</time>
      </trkpt>
      <trkpt lat="50.32192" lon="4.30886">
        <ele>147.7</ele>
        <time>2017-04-23T09:09:32Z</time>
      </trkpt>
      <trkpt lat="50.32168" lon="4.30889">
        <ele>146.26</ele>
        <time>2017-04-23T09:09:51Z</time>
      </trkpt>
      <trkpt lat="50.32163" lon="4.30889">
        <ele>145.78</ele>
        <time>2017-04-23T09:09:56Z</time>
      </trkpt>
      <trkpt lat="50.32159" lon="4.30891">
        <ele>145.3</ele>
        <time>2017-04-23T09:10:00Z</time>
      </trkpt>
      <trkpt lat="50.32135" lon="4.30897">
        <ele>144.82</ele>
        <time>2017-04-23T09:10:18Z</time>
      </trkpt>
      <trkpt lat="50.32117" lon="4.309">
        <ele>143.85</ele>
        <time>2017-04-23T09:10:33Z</time>
      </trkpt>
      <trkpt lat="50.32092" lon="4.30898">
        <ele>143.85</ele>
        <time>2017-04-23T09:10:52Z</time>
      </trkpt>
      <trkpt lat="50.32073" lon="4.30897">
        <ele>143.37</ele>
        <time>2017-04-23T09:11:09Z</time>
      </trkpt>
      <trkpt lat="50.32079" lon="4.309">
        <ele>143.37</ele>
        <time>2017-04-23T09:11:13Z</time>
      </trkpt>
      <trkpt lat="50.32084" lon="4.30905">
        <ele>143.37</ele>
        <time>2017-04-23T09:11:20Z</time>
      </trkpt>
      <trkpt lat="50.32075" lon="4.30907">
        <ele>143.37</ele>
        <time>2017-04-23T09:11:27Z</time>
      </trkpt>
      <trkpt lat="50.32069" lon="4.30902">
        <ele>143.37</ele>
        <time>2017-04-23T09:11:32Z</time>
      </trkpt>
      <trkpt lat="50.32053" lon="4.30902">
        <ele>143.37</ele>
        <time>2017-04-23T09:11:46Z</time>
      </trkpt>
      <trkpt lat="50.32033" lon="4.3091">
        <ele>141.93</ele>
        <time>2017-04-23T09:12:01Z</time>
      </trkpt>
      <trkpt lat="50.32022" lon="4.30893">
        <ele>140.49</ele>
        <time>2017-04-23T09:12:15Z</time>
      </trkpt>
      <trkpt lat="50.32019" lon="4.30877">
        <ele>139.53</ele>
        <time>2017-04-23T09:12:23Z</time>
      </trkpt>
      <trkpt lat="50.32015" lon="4.30873">
        <ele>139.05</ele>
        <time>2017-04-23T09:12:28Z</time>
      </trkpt>
      <trkpt lat="50.32012" lon="4.30878">
        <ele>138.09</ele>
        <time>2017-04-23T09:12:32Z</time>
      </trkpt>
      <trkpt lat="50.3201" lon="4.30891">
        <ele>137.61</ele>
        <time>2017-04-23T09:12:39Z</time>
      </trkpt>
      <trkpt lat="50.32003" lon="4.30922">
        <ele>135.2</ele>
        <time>2017-04-23T09:12:55Z</time>
      </trkpt>
      <trkpt lat="50.31993" lon="4.30954">
        <ele>133.28</ele>
        <time>2017-04-23T09:13:11Z</time>
      </trkpt>
      <trkpt lat="50.31985" lon="4.30984">
        <ele>132.32</ele>
        <time>2017-04-23T09:13:30Z</time>
      </trkpt>
      <trkpt lat="50.31978" lon="4.31016">
        <ele>131.36</ele>
        <time>2017-04-23T09:13:47Z</time>
      </trkpt>
      <trkpt lat="50.31969" lon="4.31046">
        <ele>130.4</ele>
        <time>2017-04-23T09:14:02Z</time>
      </trkpt>
      <trkpt lat="50.31958" lon="4.31076">
        <ele>130.4</ele>
        <time>2017-04-23T09:14:19Z</time>
      </trkpt>
      <trkpt lat="50.31948" lon="4.31104">
        <ele>131.84</ele>
        <time>2017-04-23T09:14:34Z</time>
      </trkpt>
      <trkpt lat="50.31941" lon="4.31142">
        <ele>132.8</ele>
        <time>2017-04-23T09:14:53Z</time>
      </trkpt>
      <trkpt lat="50.31937" lon="4.31179">
        <ele>133.76</ele>
        <time>2017-04-23T09:15:11Z</time>
      </trkpt>
      <trkpt lat="50.31935" lon="4.31211">
        <ele>135.2</ele>
        <time>2017-04-23T09:15:28Z</time>
      </trkpt>
      <trkpt lat="50.31931" lon="4.3124">
        <ele>136.16</ele>
        <time>2017-04-23T09:15:43Z</time>
      </trkpt>
      <trkpt lat="50.31929" lon="4.31264">
        <ele>137.61</ele>
        <time>2017-04-23T09:15:58Z</time>
      </trkpt>
      <trkpt lat="50.31923" lon="4.31288">
        <ele>139.05</ele>
        <time>2017-04-23T09:16:14Z</time>
      </trkpt>
      <trkpt lat="50.31917" lon="4.31298">
        <ele>139.05</ele>
        <time>2017-04-23T09:16:20Z</time>
      </trkpt>
      <trkpt lat="50.31893" lon="4.31318">
        <ele>139.53</ele>
        <time>2017-04-23T09:16:39Z</time>
      </trkpt>
      <trkpt lat="50.31872" lon="4.31324">
        <ele>139.53</ele>
        <time>2017-04-23T09:16:56Z</time>
      </trkpt>
      <trkpt lat="50.31854" lon="4.31325">
        <ele>138.57</ele>
        <time>2017-04-23T09:17:09Z</time>
      </trkpt>
      <trkpt lat="50.31832" lon="4.31329">
        <ele>138.09</ele>
        <time>2017-04-23T09:17:26Z</time>
      </trkpt>
      <trkpt lat="50.31807" lon="4.31338">
        <ele>137.61</ele>
        <time>2017-04-23T09:17:45Z</time>
      </trkpt>
      <trkpt lat="50.31788" lon="4.31352">
        <ele>137.13</ele>
        <time>2017-04-23T09:18:01Z</time>
      </trkpt>
      <trkpt lat="50.31768" lon="4.31373">
        <ele>136.64</ele>
        <time>2017-04-23T09:18:20Z</time>
      </trkpt>
      <trkpt lat="50.31751" lon="4.31398">
        <ele>136.16</ele>
        <time>2017-04-23T09:18:38Z</time>
      </trkpt>
      <trkpt lat="50.31737" lon="4.31421">
        <ele>136.16</ele>
        <time>2017-04-23T09:18:54Z</time>
      </trkpt>
      <trkpt lat="50.31715" lon="4.31445">
        <ele>136.16</ele>
        <time>2017-04-23T09:19:14Z</time>
      </trkpt>
      <trkpt lat="50.31693" lon="4.31446">
        <ele>136.16</ele>
        <time>2017-04-23T09:19:32Z</time>
      </trkpt>
      <trkpt lat="50.3167" lon="4.3144">
        <ele>136.16</ele>
        <time>2017-04-23T09:19:49Z</time>
      </trkpt>
      <trkpt lat="50.31649" lon="4.31432">
        <ele>137.13</ele>
        <time>2017-04-23T09:20:06Z</time>
      </trkpt>
      <trkpt lat="50.31629" lon="4.31415">
        <ele>137.61</ele>
        <time>2017-04-23T09:20:23Z</time>
      </trkpt>
      <trkpt lat="50.31625" lon="4.31409">
        <ele>136.16</ele>
        <time>2017-04-23T09:20:28Z</time>
      </trkpt>
      <trkpt lat="50.31611" lon="4.31387">
        <ele>135.68</ele>
        <time>2017-04-23T09:20:44Z</time>
      </trkpt>
      <trkpt lat="50.316" lon="4.31378">
        <ele>135.2</ele>
        <time>2017-04-23T09:20:53Z</time>
      </trkpt>
      <trkpt lat="50.31593" lon="4.31382">
        <ele>135.2</ele>
        <time>2017-04-23T09:21:00Z</time>
      </trkpt>
      <trkpt lat="50.31595" lon="4.31413">
        <ele>136.64</ele>
        <time>2017-04-23T09:21:18Z</time>
      </trkpt>
      <trkpt lat="50.31602" lon="4.31438">
        <ele>138.57</ele>
        <time>2017-04-23T09:21:34Z</time>
      </trkpt>
      <trkpt lat="50.31606" lon="4.31464">
        <ele>140.01</ele>
        <time>2017-04-23T09:21:48Z</time>
      </trkpt>
      <trkpt lat="50.31609" lon="4.31495">
        <ele>141.45</ele>
        <time>2017-04-23T09:22:05Z</time>
      </trkpt>
      <trkpt lat="50.31604" lon="4.31529">
        <ele>142.41</ele>
        <time>2017-04-23T09:22:22Z</time>
      </trkpt>
      <trkpt lat="50.31601" lon="4.31562">
        <ele>144.34</ele>
        <time>2017-04-23T09:22:42Z</time>
      </trkpt>
      <trkpt lat="50.31594" lon="4.31596">
        <ele>147.22</ele>
        <time>2017-04-23T09:23:02Z</time>
      </trkpt>
      <trkpt lat="50.31591" lon="4.31626">
        <ele>150.1</ele>
        <time>2017-04-23T09:23:20Z</time>
      </trkpt>
      <trkpt lat="50.31589" lon="4.31651">
        <ele>152.03</ele>
        <time>2017-04-23T09:23:35Z</time>
      </trkpt>
      <trkpt lat="50.31588" lon="4.3167">
        <ele>153.47</ele>
        <time>2017-04-23T09:23:45Z</time>
      </trkpt>
      <trkpt lat="50.31589" lon="4.31676">
        <ele>153.95</ele>
        <time>2017-04-23T09:23:49Z</time>
      </trkpt>
      <trkpt lat="50.31589" lon="4.3168">
        <ele>153.95</ele>
        <time>2017-04-23T09:23:51Z</time>
      </trkpt>
      <trkpt lat="50.31596" lon="4.31712">
        <ele>154.91</ele>
        <time>2017-04-23T09:24:08Z</time>
      </trkpt>
      <trkpt lat="50.31602" lon="4.31739">
        <ele>156.35</ele>
        <time>2017-04-23T09:24:23Z</time>
      </trkpt>
      <trkpt lat="50.3161" lon="4.31768">
        <ele>157.31</ele>
        <time>2017-04-23T09:24:38Z</time>
      </trkpt>
      <trkpt lat="50.31618" lon="4.31804">
        <ele>159.24</ele>
        <time>2017-04-23T09:24:58Z</time>
      </trkpt>
      <trkpt lat="50.31623" lon="4.31834">
        <ele>159.72</ele>
        <time>2017-04-23T09:25:14Z</time>
      </trkpt>
      <trkpt lat="50.31629" lon="4.31868">
        <ele>161.16</ele>
        <time>2017-04-23T09:25:32Z</time>
      </trkpt>
      <trkpt lat="50.31635" lon="4.31905">
        <ele>162.12</ele>
        <time>2017-04-23T09:25:52Z</time>
      </trkpt>
      <trkpt lat="50.31645" lon="4.31939">
        <ele>162.6</ele>
        <time>2017-04-23T09:26:11Z</time>
      </trkpt>
      <trkpt lat="50.31652" lon="4.31969">
        <ele>163.56</ele>
        <time>2017-04-23T09:26:28Z</time>
      </trkpt>
      <trkpt lat="50.31659" lon="4.31999">
        <ele>164.52</ele>
        <time>2017-04-23T09:26:45Z</time>
      </trkpt>
      <trkpt lat="50.3167" lon="4.32029">
        <ele>165.96</ele>
        <time>2017-04-23T09:27:02Z</time>
      </trkpt>
      <trkpt lat="50.31683" lon="4.32063">
        <ele>165.96</ele>
        <time>2017-04-23T09:27:22Z</time>
      </trkpt>
      <trkpt lat="50.31696" lon="4.321">
        <ele>166.45</ele>
        <time>2017-04-23T09:27:43Z</time>
      </trkpt>
      <trkpt lat="50.31706" lon="4.32126">
        <ele>167.89</ele>
        <time>2017-04-23T09:27:59Z</time>
      </trkpt>
      <trkpt lat="50.31715" lon="4.32158">
        <ele>167.89</ele>
        <time>2017-04-23T09:28:16Z</time>
      </trkpt>
      <trkpt lat="50.31725" lon="4.32189">
        <ele>168.37</ele>
        <time>2017-04-23T09:28:33Z</time>
      </trkpt>
      <trkpt lat="50.31726" lon="4.32197">
        <ele>168.37</ele>
        <time>2017-04-23T09:28:37Z</time>
      </trkpt>
      <trkpt lat="50.31735" lon="4.32233">
        <ele>168.37</ele>
        <time>2017-04-23T09:28:56Z</time>
      </trkpt>
      <trkpt lat="50.31743" lon="4.3227">
        <ele>168.85</ele>
        <time>2017-04-23T09:29:15Z</time>
      </trkpt>
      <trkpt lat="50.31754" lon="4.32301">
        <ele>169.33</ele>
        <time>2017-04-23T09:29:33Z</time>
      </trkpt>
      <trkpt lat="50.31764" lon="4.32329">
        <ele>169.81</ele>
        <time>2017-04-23T09:29:49Z</time>
      </trkpt>
      <trkpt lat="50.31779" lon="4.32358">
        <ele>169.81</ele>
        <time>2017-04-23T09:30:08Z</time>
      </trkpt>
      <trkpt lat="50.31797" lon="4.32386">
        <ele>170.77</ele>
        <time>2017-04-23T09:30:28Z</time>
      </trkpt>
      <trkpt lat="50.31816" lon="4.3241">
        <ele>171.73</ele>
        <time>2017-04-23T09:30:47Z</time>
      </trkpt>
      <trkpt lat="50.31834" lon="4.32431">
        <ele>172.69</ele>
        <time>2017-04-23T09:31:05Z</time>
      </trkpt>
      <trkpt lat="50.31853" lon="4.32454">
        <ele>173.17</ele>
        <time>2017-04-23T09:31:23Z</time>
      </trkpt>
      <trkpt lat="50.3187" lon="4.32474">
        <ele>174.14</ele>
        <time>2017-04-23T09:31:41Z</time>
      </trkpt>
      <trkpt lat="50.31888" lon="4.32494">
        <ele>175.1</ele>
        <time>2017-04-23T09:31:59Z</time>
      </trkpt>
      <trkpt lat="50.31907" lon="4.32518">
        <ele>175.58</ele>
        <time>2017-04-23T09:32:18Z</time>
      </trkpt>
      <trkpt lat="50.31925" lon="4.32549">
        <ele>175.58</ele>
        <time>2017-04-23T09:32:40Z</time>
      </trkpt>
      <trkpt lat="50.31939" lon="4.3258">
        <ele>176.06</ele>
        <time>2017-04-23T09:32:59Z</time>
      </trkpt>
      <trkpt lat="50.31952" lon="4.32612">
        <ele>176.06</ele>
        <time>2017-04-23T09:33:18Z</time>
      </trkpt>
      <trkpt lat="50.31962" lon="4.32646">
        <ele>175.1</ele>
        <time>2017-04-23T09:33:37Z</time>
      </trkpt>
      <trkpt lat="50.31971" lon="4.32675">
        <ele>174.62</ele>
        <time>2017-04-23T09:33:53Z</time>
      </trkpt>
      <trkpt lat="50.31979" lon="4.32712">
        <ele>174.62</ele>
        <time>2017-04-23T09:34:13Z</time>
      </trkpt>
      <trkpt lat="50.31983" lon="4.32744">
        <ele>174.62</ele>
        <time>2017-04-23T09:34:29Z</time>
      </trkpt>
      <trkpt lat="50.31988" lon="4.32777">
        <ele>174.62</ele>
        <time>2017-04-23T09:34:46Z</time>
      </trkpt>
      <trkpt lat="50.31991" lon="4.32809">
        <ele>174.62</ele>
        <time>2017-04-23T09:35:04Z</time>
      </trkpt>
      <trkpt lat="50.31994" lon="4.32843">
        <ele>176.06</ele>
        <time>2017-04-23T09:35:21Z</time>
      </trkpt>
      <trkpt lat="50.31997" lon="4.32876">
        <ele>176.06</ele>
        <time>2017-04-23T09:35:38Z</time>
      </trkpt>
      <trkpt lat="50.32002" lon="4.32911">
        <ele>176.54</ele>
        <time>2017-04-23T09:35:57Z</time>
      </trkpt>
      <trkpt lat="50.32007" lon="4.32945">
        <ele>176.54</ele>
        <time>2017-04-23T09:36:15Z</time>
      </trkpt>
      <trkpt lat="50.32011" lon="4.32977">
        <ele>177.02</ele>
        <time>2017-04-23T09:36:32Z</time>
      </trkpt>
      <trkpt lat="50.32015" lon="4.33006">
        <ele>177.5</ele>
        <time>2017-04-23T09:36:48Z</time>
      </trkpt>
      <trkpt lat="50.32024" lon="4.33034">
        <ele>177.5</ele>
        <time>2017-04-23T09:37:05Z</time>
      </trkpt>
      <trkpt lat="50.32039" lon="4.33065">
        <ele>177.5</ele>
        <time>2017-04-23T09:37:25Z</time>
      </trkpt>
      <trkpt lat="50.32052" lon="4.33091">
        <ele>177.98</ele>
        <time>2017-04-23T09:37:42Z</time>
      </trkpt>
      <trkpt lat="50.32067" lon="4.3312">
        <ele>178.46</ele>
        <time>2017-04-23T09:38:01Z</time>
      </trkpt>
      <trkpt lat="50.32082" lon="4.33151">
        <ele>178.94</ele>
        <time>2017-04-23T09:38:21Z</time>
      </trkpt>
      <trkpt lat="50.32096" lon="4.33176">
        <ele>179.42</ele>
        <time>2017-04-23T09:38:39Z</time>
      </trkpt>
      <trkpt lat="50.32111" lon="4.33203">
        <ele>180.38</ele>
        <time>2017-04-23T09:38:58Z</time>
      </trkpt>
      <trkpt lat="50.32126" lon="4.33234">
        <ele>180.87</ele>
        <time>2017-04-23T09:39:18Z</time>
      </trkpt>
      <trkpt lat="50.32137" lon="4.33265">
        <ele>181.35</ele>
        <time>2017-04-23T09:39:36Z</time>
      </trkpt>
      <trkpt lat="50.32148" lon="4.33298">
        <ele>181.83</ele>
        <time>2017-04-23T09:39:55Z</time>
      </trkpt>
      <trkpt lat="50.32159" lon="4.33334">
        <ele>182.79</ele>
        <time>2017-04-23T09:40:15Z</time>
      </trkpt>
      <trkpt lat="50.3217" lon="4.33362">
        <ele>183.75</ele>
        <time>2017-04-23T09:40:32Z</time>
      </trkpt>
      <trkpt lat="50.32182" lon="4.33394">
        <ele>184.23</ele>
        <time>2017-04-23T09:40:51Z</time>
      </trkpt>
      <trkpt lat="50.32196" lon="4.33422">
        <ele>184.71</ele>
        <time>2017-04-23T09:41:10Z</time>
      </trkpt>
      <trkpt lat="50.32208" lon="4.3345">
        <ele>185.19</ele>
        <time>2017-04-23T09:41:27Z</time>
      </trkpt>
      <trkpt lat="50.32222" lon="4.33481">
        <ele>186.15</ele>
        <time>2017-04-23T09:41:46Z</time>
      </trkpt>
      <trkpt lat="50.32235" lon="4.33508">
        <ele>186.63</ele>
        <time>2017-04-23T09:42:03Z</time>
      </trkpt>
      <trkpt lat="50.32246" lon="4.33536">
        <ele>187.11</ele>
        <time>2017-04-23T09:42:20Z</time>
      </trkpt>
      <trkpt lat="50.32258" lon="4.33568">
        <ele>187.11</ele>
        <time>2017-04-23T09:42:39Z</time>
      </trkpt>
      <trkpt lat="50.32271" lon="4.33599">
        <ele>188.08</ele>
        <time>2017-04-23T09:42:58Z</time>
      </trkpt>
      <trkpt lat="50.32286" lon="4.33631">
        <ele>188.56</ele>
        <time>2017-04-23T09:43:18Z</time>
      </trkpt>
      <trkpt lat="50.32301" lon="4.33657">
        <ele>189.04</ele>
        <time>2017-04-23T09:43:36Z</time>
      </trkpt>
      <trkpt lat="50.32308" lon="4.33669">
        <ele>187.59</ele>
        <time>2017-04-23T09:43:45Z</time>
      </trkpt>
      <trkpt lat="50.32326" lon="4.33697">
        <ele>187.59</ele>
        <time>2017-04-23T09:44:05Z</time>
      </trkpt>
      <trkpt lat="50.32348" lon="4.33714">
        <ele>189.04</ele>
        <time>2017-04-23T09:44:24Z</time>
      </trkpt>
      <trkpt lat="50.32367" lon="4.33723">
        <ele>189.04</ele>
        <time>2017-04-23T09:44:40Z</time>
      </trkpt>
      <trkpt lat="50.32388" lon="4.33734">
        <ele>189.04</ele>
        <time>2017-04-23T09:44:58Z</time>
      </trkpt>
      <trkpt lat="50.32411" lon="4.33746">
        <ele>189.04</ele>
        <time>2017-04-23T09:45:17Z</time>
      </trkpt>
      <trkpt lat="50.32433" lon="4.33757">
        <ele>189.04</ele>
        <time>2017-04-23T09:45:35Z</time>
      </trkpt>
      <trkpt lat="50.32453" lon="4.33767">
        <ele>189.52</ele>
        <time>2017-04-23T09:45:52Z</time>
      </trkpt>
      <trkpt lat="50.32471" lon="4.33775">
        <ele>188.56</ele>
        <time>2017-04-23T09:46:07Z</time>
      </trkpt>
      <trkpt lat="50.32482" lon="4.33779">
        <ele>188.56</ele>
        <time>2017-04-23T09:46:16Z</time>
      </trkpt>
      <trkpt lat="50.32501" lon="4.33786">
        <ele>188.56</ele>
        <time>2017-04-23T09:46:32Z</time>
      </trkpt>
      <trkpt lat="50.32522" lon="4.33793">
        <ele>188.08</ele>
        <time>2017-04-23T09:46:49Z</time>
      </trkpt>
      <trkpt lat="50.32544" lon="4.33801">
        <ele>188.08</ele>
        <time>2017-04-23T09:47:07Z</time>
      </trkpt>
      <trkpt lat="50.32567" lon="4.33807">
        <ele>188.08</ele>
        <time>2017-04-23T09:47:25Z</time>
      </trkpt>
      <trkpt lat="50.32587" lon="4.33814">
        <ele>188.08</ele>
        <time>2017-04-23T09:47:41Z</time>
      </trkpt>
      <trkpt lat="50.32611" lon="4.33821">
        <ele>189.04</ele>
        <time>2017-04-23T09:48:00Z</time>
      </trkpt>
      <trkpt lat="50.32634" lon="4.3383">
        <ele>189.52</ele>
        <time>2017-04-23T09:48:18Z</time>
      </trkpt>
      <trkpt lat="50.32655" lon="4.33837">
        <ele>189.52</ele>
        <time>2017-04-23T09:48:36Z</time>
      </trkpt>
      <trkpt lat="50.32676" lon="4.33847">
        <ele>190</ele>
        <time>2017-04-23T09:48:53Z</time>
      </trkpt>
      <trkpt lat="50.32697" lon="4.33856">
        <ele>190</ele>
        <time>2017-04-23T09:49:11Z</time>
      </trkpt>
      <trkpt lat="50.32722" lon="4.33867">
        <ele>190</ele>
        <time>2017-04-23T09:49:30Z</time>
      </trkpt>
      <trkpt lat="50.32743" lon="4.3388">
        <ele>190.96</ele>
        <time>2017-04-23T09:49:47Z</time>
      </trkpt>
      <trkpt lat="50.32771" lon="4.33895">
        <ele>190.48</ele>
        <time>2017-04-23T09:50:09Z</time>
      </trkpt>
      <trkpt lat="50.32773" lon="4.33896">
        <ele>190.48</ele>
        <time>2017-04-23T09:50:11Z</time>
      </trkpt>
      <trkpt lat="50.32781" lon="4.33898">
        <ele>190.48</ele>
        <time>2017-04-23T09:50:25Z</time>
      </trkpt>
      <trkpt lat="50.32781" lon="4.33902">
        <ele>190.96</ele>
        <time>2017-04-23T09:51:03Z</time>
      </trkpt>
      <trkpt lat="50.32786" lon="4.33907">
        <ele>190.96</ele>
        <time>2017-04-23T09:51:07Z</time>
      </trkpt>
      <trkpt lat="50.32788" lon="4.33909">
        <ele>191.44</ele>
        <time>2017-04-23T09:51:08Z</time>
      </trkpt>
      <trkpt lat="50.32816" lon="4.33926">
        <ele>191.92</ele>
        <time>2017-04-23T09:51:24Z</time>
      </trkpt>
      <trkpt lat="50.32855" lon="4.3395">
        <ele>191.92</ele>
        <time>2017-04-23T09:51:48Z</time>
      </trkpt>
      <trkpt lat="50.32892" lon="4.33969">
        <ele>191.92</ele>
        <time>2017-04-23T09:52:11Z</time>
      </trkpt>
      <trkpt lat="50.32921" lon="4.33986">
        <ele>192.88</ele>
        <time>2017-04-23T09:52:29Z</time>
      </trkpt>
      <trkpt lat="50.32944" lon="4.34">
        <ele>193.36</ele>
        <time>2017-04-23T09:52:48Z</time>
      </trkpt>
      <trkpt lat="50.32969" lon="4.34015">
        <ele>193.36</ele>
        <time>2017-04-23T09:53:08Z</time>
      </trkpt>
      <trkpt lat="50.3299" lon="4.34029">
        <ele>193.84</ele>
        <time>2017-04-23T09:53:26Z</time>
      </trkpt>
      <trkpt lat="50.33013" lon="4.34043">
        <ele>194.32</ele>
        <time>2017-04-23T09:53:45Z</time>
      </trkpt>
      <trkpt lat="50.33036" lon="4.3406">
        <ele>194.32</ele>
        <time>2017-04-23T09:54:04Z</time>
      </trkpt>
      <trkpt lat="50.33055" lon="4.34073">
        <ele>194.8</ele>
        <time>2017-04-23T09:54:20Z</time>
      </trkpt>
      <trkpt lat="50.33059" lon="4.34076">
        <ele>193.36</ele>
        <time>2017-04-23T09:54:23Z</time>
      </trkpt>
      <trkpt lat="50.33064" lon="4.34079">
        <ele>194.8</ele>
        <time>2017-04-23T09:54:28Z</time>
      </trkpt>
      <trkpt lat="50.33087" lon="4.34094">
        <ele>194.32</ele>
        <time>2017-04-23T09:54:47Z</time>
      </trkpt>
      <trkpt lat="50.33109" lon="4.34109">
        <ele>194.8</ele>
        <time>2017-04-23T09:55:05Z</time>
      </trkpt>
      <trkpt lat="50.33113" lon="4.34111">
        <ele>193.36</ele>
        <time>2017-04-23T09:55:08Z</time>
      </trkpt>
      <trkpt lat="50.33136" lon="4.34127">
        <ele>194.8</ele>
        <time>2017-04-23T09:55:27Z</time>
      </trkpt>
      <trkpt lat="50.3316" lon="4.34143">
        <ele>194.8</ele>
        <time>2017-04-23T09:55:47Z</time>
      </trkpt>
      <trkpt lat="50.33181" lon="4.34159">
        <ele>194.8</ele>
        <time>2017-04-23T09:56:05Z</time>
      </trkpt>
      <trkpt lat="50.33204" lon="4.34171">
        <ele>193.84</ele>
        <time>2017-04-23T09:56:25Z</time>
      </trkpt>
      <trkpt lat="50.33216" lon="4.34148">
        <ele>193.36</ele>
        <time>2017-04-23T09:56:41Z</time>
      </trkpt>
      <trkpt lat="50.33227" lon="4.34125">
        <ele>192.88</ele>
        <time>2017-04-23T09:56:57Z</time>
      </trkpt>
      <trkpt lat="50.33237" lon="4.34101">
        <ele>191.44</ele>
        <time>2017-04-23T09:57:12Z</time>
      </trkpt>
      <trkpt lat="50.33248" lon="4.34079">
        <ele>190</ele>
        <time>2017-04-23T09:57:27Z</time>
      </trkpt>
      <trkpt lat="50.33263" lon="4.3405">
        <ele>188.56</ele>
        <time>2017-04-23T09:57:45Z</time>
      </trkpt>
      <trkpt lat="50.33279" lon="4.34024">
        <ele>187.59</ele>
        <time>2017-04-23T09:58:03Z</time>
      </trkpt>
      <trkpt lat="50.33295" lon="4.34003">
        <ele>186.15</ele>
        <time>2017-04-23T09:58:19Z</time>
      </trkpt>
      <trkpt lat="50.33315" lon="4.3398">
        <ele>185.19</ele>
        <time>2017-04-23T09:58:38Z</time>
      </trkpt>
      <trkpt lat="50.33335" lon="4.33957">
        <ele>184.71</ele>
        <time>2017-04-23T09:58:56Z</time>
      </trkpt>
      <trkpt lat="50.33353" lon="4.33933">
        <ele>184.71</ele>
        <time>2017-04-23T09:59:15Z</time>
      </trkpt>
      <trkpt lat="50.33372" lon="4.33917">
        <ele>184.71</ele>
        <time>2017-04-23T09:59:32Z</time>
      </trkpt>
      <trkpt lat="50.33397" lon="4.33914">
        <ele>186.15</ele>
        <time>2017-04-23T09:59:51Z</time>
      </trkpt>
      <trkpt lat="50.3341" lon="4.33918">
        <ele>186.63</ele>
        <time>2017-04-23T10:00:02Z</time>
      </trkpt>
      <trkpt lat="50.33432" lon="4.33922">
        <ele>187.59</ele>
        <time>2017-04-23T10:00:20Z</time>
      </trkpt>
      <trkpt lat="50.33449" lon="4.33925">
        <ele>188.08</ele>
        <time>2017-04-23T10:00:33Z</time>
      </trkpt>
      <trkpt lat="50.33473" lon="4.33929">
        <ele>188.56</ele>
        <time>2017-04-23T10:00:52Z</time>
      </trkpt>
      <trkpt lat="50.33496" lon="4.33933">
        <ele>189.04</ele>
        <time>2017-04-23T10:01:09Z</time>
      </trkpt>
      <trkpt lat="50.33518" lon="4.33937">
        <ele>189.52</ele>
        <time>2017-04-23T10:01:27Z</time>
      </trkpt>
      <trkpt lat="50.3354" lon="4.33942">
        <ele>190.48</ele>
        <time>2017-04-23T10:01:45Z</time>
      </trkpt>
      <trkpt lat="50.33568" lon="4.33948">
        <ele>190.96</ele>
        <time>2017-04-23T10:02:06Z</time>
      </trkpt>
      <trkpt lat="50.33591" lon="4.33951">
        <ele>192.4</ele>
        <time>2017-04-23T10:02:24Z</time>
      </trkpt>
      <trkpt lat="50.33612" lon="4.33955">
        <ele>193.36</ele>
        <time>2017-04-23T10:02:41Z</time>
      </trkpt>
      <trkpt lat="50.33624" lon="4.33956">
        <ele>195.77</ele>
        <time>2017-04-23T10:02:58Z</time>
      </trkpt>
      <trkpt lat="50.33646" lon="4.33959">
        <ele>195.77</ele>
        <time>2017-04-23T10:03:14Z</time>
      </trkpt>
      <trkpt lat="50.33669" lon="4.33965">
        <ele>195.77</ele>
        <time>2017-04-23T10:03:32Z</time>
      </trkpt>
      <trkpt lat="50.33694" lon="4.33968">
        <ele>194.32</ele>
        <time>2017-04-23T10:03:52Z</time>
      </trkpt>
      <trkpt lat="50.337" lon="4.33969">
        <ele>195.77</ele>
        <time>2017-04-23T10:03:56Z</time>
      </trkpt>
      <trkpt lat="50.33723" lon="4.33973">
        <ele>196.25</ele>
        <time>2017-04-23T10:04:14Z</time>
      </trkpt>
      <trkpt lat="50.33748" lon="4.33979">
        <ele>195.77</ele>
        <time>2017-04-23T10:04:34Z</time>
      </trkpt>
      <trkpt lat="50.3375" lon="4.3398">
        <ele>197.21</ele>
        <time>2017-04-23T10:04:36Z</time>
      </trkpt>
      <trkpt lat="50.3377" lon="4.33982">
        <ele>196.73</ele>
        <time>2017-04-23T10:04:51Z</time>
      </trkpt>
      <trkpt lat="50.33794" lon="4.33986">
        <ele>197.21</ele>
        <time>2017-04-23T10:05:10Z</time>
      </trkpt>
      <trkpt lat="50.33821" lon="4.33992">
        <ele>197.69</ele>
        <time>2017-04-23T10:05:30Z</time>
      </trkpt>
      <trkpt lat="50.33846" lon="4.34001">
        <ele>198.65</ele>
        <time>2017-04-23T10:05:50Z</time>
      </trkpt>
      <trkpt lat="50.33873" lon="4.34017">
        <ele>199.61</ele>
        <time>2017-04-23T10:06:12Z</time>
      </trkpt>
      <trkpt lat="50.33898" lon="4.34033">
        <ele>199.61</ele>
        <time>2017-04-23T10:06:32Z</time>
      </trkpt>
      <trkpt lat="50.33922" lon="4.34051">
        <ele>200.57</ele>
        <time>2017-04-23T10:06:53Z</time>
      </trkpt>
      <trkpt lat="50.33944" lon="4.34063">
        <ele>201.05</ele>
        <time>2017-04-23T10:07:11Z</time>
      </trkpt>
      <trkpt lat="50.33967" lon="4.34074">
        <ele>201.05</ele>
        <time>2017-04-23T10:07:29Z</time>
      </trkpt>
      <trkpt lat="50.3399" lon="4.34084">
        <ele>201.53</ele>
        <time>2017-04-23T10:07:48Z</time>
      </trkpt>
      <trkpt lat="50.34014" lon="4.34094">
        <ele>202.01</ele>
        <time>2017-04-23T10:08:07Z</time>
      </trkpt>
      <trkpt lat="50.34038" lon="4.34102">
        <ele>202.98</ele>
        <time>2017-04-23T10:08:26Z</time>
      </trkpt>
      <trkpt lat="50.3406" lon="4.34112">
        <ele>203.46</ele>
        <time>2017-04-23T10:08:44Z</time>
      </trkpt>
      <trkpt lat="50.3408" lon="4.34121">
        <ele>203.94</ele>
        <time>2017-04-23T10:08:59Z</time>
      </trkpt>
      <trkpt lat="50.34106" lon="4.34131">
        <ele>203.94</ele>
        <time>2017-04-23T10:09:19Z</time>
      </trkpt>
      <trkpt lat="50.34129" lon="4.3414">
        <ele>203.94</ele>
        <time>2017-04-23T10:09:37Z</time>
      </trkpt>
      <trkpt lat="50.34153" lon="4.34151">
        <ele>203.94</ele>
        <time>2017-04-23T10:09:56Z</time>
      </trkpt>
      <trkpt lat="50.34175" lon="4.34161">
        <ele>204.42</ele>
        <time>2017-04-23T10:10:14Z</time>
      </trkpt>
      <trkpt lat="50.34202" lon="4.34174">
        <ele>204.42</ele>
        <time>2017-04-23T10:10:36Z</time>
      </trkpt>
      <trkpt lat="50.34227" lon="4.34186">
        <ele>204.42</ele>
        <time>2017-04-23T10:10:56Z</time>
      </trkpt>
      <trkpt lat="50.34249" lon="4.34197">
        <ele>204.9</ele>
        <time>2017-04-23T10:11:14Z</time>
      </trkpt>
      <trkpt lat="50.34273" lon="4.34207">
        <ele>204.9</ele>
        <time>2017-04-23T10:11:34Z</time>
      </trkpt>
      <trkpt lat="50.34297" lon="4.34218">
        <ele>205.38</ele>
        <time>2017-04-23T10:11:53Z</time>
      </trkpt>
      <trkpt lat="50.3432" lon="4.34228">
        <ele>204.42</ele>
        <time>2017-04-23T10:12:12Z</time>
      </trkpt>
      <trkpt lat="50.34343" lon="4.3424">
        <ele>203.94</ele>
        <time>2017-04-23T10:12:31Z</time>
      </trkpt>
      <trkpt lat="50.34368" lon="4.34252">
        <ele>202.98</ele>
        <time>2017-04-23T10:12:52Z</time>
      </trkpt>
      <trkpt lat="50.3439" lon="4.34262">
        <ele>202.49</ele>
        <time>2017-04-23T10:13:10Z</time>
      </trkpt>
      <trkpt lat="50.34415" lon="4.3426">
        <ele>201.53</ele>
        <time>2017-04-23T10:13:29Z</time>
      </trkpt>
      <trkpt lat="50.34439" lon="4.34258">
        <ele>201.05</ele>
        <time>2017-04-23T10:13:48Z</time>
      </trkpt>
      <trkpt lat="50.34463" lon="4.34259">
        <ele>200.57</ele>
        <time>2017-04-23T10:14:06Z</time>
      </trkpt>
      <trkpt lat="50.34486" lon="4.34257">
        <ele>200.57</ele>
        <time>2017-04-23T10:14:24Z</time>
      </trkpt>
      <trkpt lat="50.34512" lon="4.34256">
        <ele>199.61</ele>
        <time>2017-04-23T10:14:44Z</time>
      </trkpt>
      <trkpt lat="50.34535" lon="4.34257">
        <ele>199.13</ele>
        <time>2017-04-23T10:15:02Z</time>
      </trkpt>
      <trkpt lat="50.34557" lon="4.34255">
        <ele>199.13</ele>
        <time>2017-04-23T10:15:20Z</time>
      </trkpt>
      <trkpt lat="50.34582" lon="4.34254">
        <ele>199.13</ele>
        <time>2017-04-23T10:15:39Z</time>
      </trkpt>
      <trkpt lat="50.34605" lon="4.34252">
        <ele>198.65</ele>
        <time>2017-04-23T10:15:57Z</time>
      </trkpt>
      <trkpt lat="50.34628" lon="4.34252">
        <ele>198.17</ele>
        <time>2017-04-23T10:16:15Z</time>
      </trkpt>
      <trkpt lat="50.34651" lon="4.34251">
        <ele>197.21</ele>
        <time>2017-04-23T10:16:32Z</time>
      </trkpt>
      <trkpt lat="50.34673" lon="4.3425">
        <ele>196.73</ele>
        <time>2017-04-23T10:16:49Z</time>
      </trkpt>
      <trkpt lat="50.34695" lon="4.34249">
        <ele>195.77</ele>
        <time>2017-04-23T10:17:06Z</time>
      </trkpt>
      <trkpt lat="50.34718" lon="4.34248">
        <ele>195.28</ele>
        <time>2017-04-23T10:17:24Z</time>
      </trkpt>
      <trkpt lat="50.34745" lon="4.34246">
        <ele>194.32</ele>
        <time>2017-04-23T10:17:44Z</time>
      </trkpt>
      <trkpt lat="50.34765" lon="4.34246">
        <ele>193.84</ele>
        <time>2017-04-23T10:18:00Z</time>
      </trkpt>
      <trkpt lat="50.34789" lon="4.34246">
        <ele>193.36</ele>
        <time>2017-04-23T10:18:18Z</time>
      </trkpt>
      <trkpt lat="50.34812" lon="4.34246">
        <ele>192.88</ele>
        <time>2017-04-23T10:18:36Z</time>
      </trkpt>
      <trkpt lat="50.34837" lon="4.34247">
        <ele>192.4</ele>
        <time>2017-04-23T10:18:55Z</time>
      </trkpt>
      <trkpt lat="50.34861" lon="4.34249">
        <ele>191.44</ele>
        <time>2017-04-23T10:19:14Z</time>
      </trkpt>
      <trkpt lat="50.34886" lon="4.3425">
        <ele>190.96</ele>
        <time>2017-04-23T10:19:33Z</time>
      </trkpt>
      <trkpt lat="50.34908" lon="4.34252">
        <ele>190.48</ele>
        <time>2017-04-23T10:19:51Z</time>
      </trkpt>
      <trkpt lat="50.34929" lon="4.34239">
        <ele>189.52</ele>
        <time>2017-04-23T10:20:09Z</time>
      </trkpt>
      <trkpt lat="50.34937" lon="4.34229">
        <ele>189.04</ele>
        <time>2017-04-23T10:20:17Z</time>
      </trkpt>
      <trkpt lat="50.34955" lon="4.34208">
        <ele>188.56</ele>
        <time>2017-04-23T10:20:34Z</time>
      </trkpt>
      <trkpt lat="50.34974" lon="4.34185">
        <ele>187.59</ele>
        <time>2017-04-23T10:20:53Z</time>
      </trkpt>
      <trkpt lat="50.34976" lon="4.34184">
        <ele>187.59</ele>
        <time>2017-04-23T10:20:55Z</time>
      </trkpt>
      <trkpt lat="50.35" lon="4.34182">
        <ele>187.11</ele>
        <time>2017-04-23T10:21:15Z</time>
      </trkpt>
      <trkpt lat="50.35013" lon="4.34181">
        <ele>185.19</ele>
        <time>2017-04-23T10:21:29Z</time>
      </trkpt>
      <trkpt lat="50.35032" lon="4.3418">
        <ele>183.27</ele>
        <time>2017-04-23T10:21:47Z</time>
      </trkpt>
      <trkpt lat="50.35056" lon="4.34176">
        <ele>181.35</ele>
        <time>2017-04-23T10:22:02Z</time>
      </trkpt>
      <trkpt lat="50.35066" lon="4.34172">
        <ele>179.42</ele>
        <time>2017-04-23T10:22:13Z</time>
      </trkpt>
      <trkpt lat="50.35084" lon="4.34165">
        <ele>177.5</ele>
        <time>2017-04-23T10:22:29Z</time>
      </trkpt>
      <trkpt lat="50.35101" lon="4.3416">
        <ele>176.06</ele>
        <time>2017-04-23T10:22:43Z</time>
      </trkpt>
      <trkpt lat="50.35119" lon="4.34158">
        <ele>173.66</ele>
        <time>2017-04-23T10:23:01Z</time>
      </trkpt>
      <trkpt lat="50.35137" lon="4.34153">
        <ele>172.21</ele>
        <time>2017-04-23T10:23:18Z</time>
      </trkpt>
      <trkpt lat="50.35152" lon="4.34148">
        <ele>170.29</ele>
        <time>2017-04-23T10:23:32Z</time>
      </trkpt>
      <trkpt lat="50.35169" lon="4.34145">
        <ele>168.37</ele>
        <time>2017-04-23T10:23:48Z</time>
      </trkpt>
      <trkpt lat="50.35186" lon="4.34143">
        <ele>166.93</ele>
        <time>2017-04-23T10:24:02Z</time>
      </trkpt>
      <trkpt lat="50.35208" lon="4.34144">
        <ele>165</ele>
        <time>2017-04-23T10:24:22Z</time>
      </trkpt>
      <trkpt lat="50.35232" lon="4.34147">
        <ele>162.6</ele>
        <time>2017-04-23T10:24:40Z</time>
      </trkpt>
      <trkpt lat="50.35251" lon="4.34152">
        <ele>161.16</ele>
        <time>2017-04-23T10:24:57Z</time>
      </trkpt>
      <trkpt lat="50.35269" lon="4.34159">
        <ele>159.72</ele>
        <time>2017-04-23T10:25:15Z</time>
      </trkpt>
      <trkpt lat="50.35289" lon="4.3417">
        <ele>157.31</ele>
        <time>2017-04-23T10:25:33Z</time>
      </trkpt>
      <trkpt lat="50.35319" lon="4.34183">
        <ele>154.91</ele>
        <time>2017-04-23T10:25:53Z</time>
      </trkpt>
      <trkpt lat="50.35339" lon="4.34196">
        <ele>152.99</ele>
        <time>2017-04-23T10:26:09Z</time>
      </trkpt>
      <trkpt lat="50.3536" lon="4.3421">
        <ele>151.06</ele>
        <time>2017-04-23T10:26:25Z</time>
      </trkpt>
      <trkpt lat="50.35377" lon="4.34231">
        <ele>148.66</ele>
        <time>2017-04-23T10:26:43Z</time>
      </trkpt>
      <trkpt lat="50.35395" lon="4.34252">
        <ele>146.74</ele>
        <time>2017-04-23T10:27:01Z</time>
      </trkpt>
      <trkpt lat="50.35409" lon="4.34266">
        <ele>145.3</ele>
        <time>2017-04-23T10:27:16Z</time>
      </trkpt>
      <trkpt lat="50.35426" lon="4.34282">
        <ele>142.89</ele>
        <time>2017-04-23T10:27:33Z</time>
      </trkpt>
      <trkpt lat="50.35444" lon="4.34301">
        <ele>140.49</ele>
        <time>2017-04-23T10:27:52Z</time>
      </trkpt>
      <trkpt lat="50.35464" lon="4.34322">
        <ele>139.05</ele>
        <time>2017-04-23T10:28:11Z</time>
      </trkpt>
      <trkpt lat="50.35482" lon="4.34342">
        <ele>137.13</ele>
        <time>2017-04-23T10:28:30Z</time>
      </trkpt>
      <trkpt lat="50.35503" lon="4.34361">
        <ele>135.68</ele>
        <time>2017-04-23T10:28:48Z</time>
      </trkpt>
      <trkpt lat="50.3552" lon="4.34376">
        <ele>133.76</ele>
        <time>2017-04-23T10:29:07Z</time>
      </trkpt>
      <trkpt lat="50.35535" lon="4.34386">
        <ele>132.8</ele>
        <time>2017-04-23T10:29:23Z</time>
      </trkpt>
      <trkpt lat="50.35553" lon="4.34392">
        <ele>131.84</ele>
        <time>2017-04-23T10:29:36Z</time>
      </trkpt>
      <trkpt lat="50.35554" lon="4.34392">
        <ele>131.84</ele>
        <time>2017-04-23T10:29:37Z</time>
      </trkpt>
      <trkpt lat="50.35578" lon="4.34392">
        <ele>130.4</ele>
        <time>2017-04-23T10:29:55Z</time>
      </trkpt>
      <trkpt lat="50.35606" lon="4.3439">
        <ele>129.92</ele>
        <time>2017-04-23T10:30:13Z</time>
      </trkpt>
      <trkpt lat="50.35627" lon="4.34388">
        <ele>128.95</ele>
        <time>2017-04-23T10:30:28Z</time>
      </trkpt>
      <trkpt lat="50.35646" lon="4.34389">
        <ele>128.47</ele>
        <time>2017-04-23T10:30:45Z</time>
      </trkpt>
      <trkpt lat="50.35668" lon="4.34385">
        <ele>127.51</ele>
        <time>2017-04-23T10:31:01Z</time>
      </trkpt>
      <trkpt lat="50.35692" lon="4.34385">
        <ele>127.03</ele>
        <time>2017-04-23T10:31:18Z</time>
      </trkpt>
      <trkpt lat="50.35706" lon="4.34389">
        <ele>127.03</ele>
        <time>2017-04-23T10:31:27Z</time>
      </trkpt>
      <trkpt lat="50.35707" lon="4.34388">
        <ele>127.03</ele>
        <time>2017-04-23T10:31:28Z</time>
      </trkpt>
      <trkpt lat="50.35725" lon="4.34396">
        <ele>127.03</ele>
        <time>2017-04-23T10:31:45Z</time>
      </trkpt>
      <trkpt lat="50.35744" lon="4.34392">
        <ele>126.55</ele>
        <time>2017-04-23T10:32:01Z</time>
      </trkpt>
      <trkpt lat="50.35747" lon="4.34389">
        <ele>127.03</ele>
        <time>2017-04-23T10:32:03Z</time>
      </trkpt>
      <trkpt lat="50.35748" lon="4.34387">
        <ele>127.03</ele>
        <time>2017-04-23T10:32:04Z</time>
      </trkpt>
      <trkpt lat="50.35749" lon="4.34386">
        <ele>126.55</ele>
        <time>2017-04-23T10:32:05Z</time>
      </trkpt>
      <trkpt lat="50.3575" lon="4.34385">
        <ele>126.55</ele>
        <time>2017-04-23T10:32:06Z</time>
      </trkpt>
      <trkpt lat="50.35751" lon="4.34383">
        <ele>126.55</ele>
        <time>2017-04-23T10:32:07Z</time>
      </trkpt>
      <trkpt lat="50.35752" lon="4.34382">
        <ele>126.55</ele>
        <time>2017-04-23T10:32:08Z</time>
      </trkpt>
      <trkpt lat="50.35771" lon="4.34359">
        <ele>126.55</ele>
        <time>2017-04-23T10:32:26Z</time>
      </trkpt>
      <trkpt lat="50.35786" lon="4.34338">
        <ele>126.55</ele>
        <time>2017-04-23T10:32:42Z</time>
      </trkpt>
      <trkpt lat="50.35803" lon="4.34313">
        <ele>126.07</ele>
        <time>2017-04-23T10:33:00Z</time>
      </trkpt>
      <trkpt lat="50.3582" lon="4.34292">
        <ele>126.07</ele>
        <time>2017-04-23T10:33:17Z</time>
      </trkpt>
      <trkpt lat="50.3584" lon="4.3427">
        <ele>126.07</ele>
        <time>2017-04-23T10:33:35Z</time>
      </trkpt>
      <trkpt lat="50.35861" lon="4.34252">
        <ele>126.07</ele>
        <time>2017-04-23T10:33:53Z</time>
      </trkpt>
      <trkpt lat="50.35883" lon="4.34235">
        <ele>126.07</ele>
        <time>2017-04-23T10:34:12Z</time>
      </trkpt>
      <trkpt lat="50.35904" lon="4.3422">
        <ele>126.07</ele>
        <time>2017-04-23T10:34:30Z</time>
      </trkpt>
      <trkpt lat="50.35925" lon="4.34203">
        <ele>126.07</ele>
        <time>2017-04-23T10:34:48Z</time>
      </trkpt>
      <trkpt lat="50.35943" lon="4.34188">
        <ele>126.07</ele>
        <time>2017-04-23T10:35:04Z</time>
      </trkpt>
      <trkpt lat="50.35962" lon="4.34173">
        <ele>126.07</ele>
        <time>2017-04-23T10:35:21Z</time>
      </trkpt>
      <trkpt lat="50.35981" lon="4.34161">
        <ele>127.51</ele>
        <time>2017-04-23T10:35:37Z</time>
      </trkpt>
      <trkpt lat="50.36001" lon="4.3414">
        <ele>127.51</ele>
        <time>2017-04-23T10:35:56Z</time>
      </trkpt>
      <trkpt lat="50.36018" lon="4.34122">
        <ele>127.99</ele>
        <time>2017-04-23T10:36:12Z</time>
      </trkpt>
      <trkpt lat="50.36037" lon="4.34096">
        <ele>128.47</ele>
        <time>2017-04-23T10:36:32Z</time>
      </trkpt>
      <trkpt lat="50.36056" lon="4.34068">
        <ele>128.95</ele>
        <time>2017-04-23T10:36:52Z</time>
      </trkpt>
      <trkpt lat="50.36074" lon="4.34043">
        <ele>129.92</ele>
        <time>2017-04-23T10:37:11Z</time>
      </trkpt>
      <trkpt lat="50.36091" lon="4.34019">
        <ele>130.88</ele>
        <time>2017-04-23T10:37:30Z</time>
      </trkpt>
      <trkpt lat="50.36105" lon="4.34">
        <ele>132.32</ele>
        <time>2017-04-23T10:37:46Z</time>
      </trkpt>
      <trkpt lat="50.36107" lon="4.33999">
        <ele>132.8</ele>
        <time>2017-04-23T10:37:50Z</time>
      </trkpt>
      <trkpt lat="50.36109" lon="4.33997">
        <ele>132.8</ele>
        <time>2017-04-23T10:37:52Z</time>
      </trkpt>
      <trkpt lat="50.3611" lon="4.33996">
        <ele>133.28</ele>
        <time>2017-04-23T10:37:53Z</time>
      </trkpt>
      <trkpt lat="50.36111" lon="4.33995">
        <ele>133.28</ele>
        <time>2017-04-23T10:37:54Z</time>
      </trkpt>
      <trkpt lat="50.36128" lon="4.33983">
        <ele>133.76</ele>
        <time>2017-04-23T10:38:10Z</time>
      </trkpt>
      <trkpt lat="50.36145" lon="4.33973">
        <ele>134.72</ele>
        <time>2017-04-23T10:38:25Z</time>
      </trkpt>
      <trkpt lat="50.36164" lon="4.33963">
        <ele>135.68</ele>
        <time>2017-04-23T10:38:41Z</time>
      </trkpt>
      <trkpt lat="50.36184" lon="4.33952">
        <ele>136.64</ele>
        <time>2017-04-23T10:38:58Z</time>
      </trkpt>
      <trkpt lat="50.36207" lon="4.33941">
        <ele>136.64</ele>
        <time>2017-04-23T10:39:17Z</time>
      </trkpt>
      <trkpt lat="50.36231" lon="4.33927">
        <ele>137.61</ele>
        <time>2017-04-23T10:39:36Z</time>
      </trkpt>
      <trkpt lat="50.36252" lon="4.33916">
        <ele>138.09</ele>
        <time>2017-04-23T10:39:54Z</time>
      </trkpt>
      <trkpt lat="50.36276" lon="4.33907">
        <ele>138.09</ele>
        <time>2017-04-23T10:40:13Z</time>
      </trkpt>
      <trkpt lat="50.36288" lon="4.33902">
        <ele>136.64</ele>
        <time>2017-04-23T10:40:22Z</time>
      </trkpt>
      <trkpt lat="50.3631" lon="4.33894">
        <ele>135.68</ele>
        <time>2017-04-23T10:40:40Z</time>
      </trkpt>
      <trkpt lat="50.36333" lon="4.33884">
        <ele>134.24</ele>
        <time>2017-04-23T10:40:59Z</time>
      </trkpt>
      <trkpt lat="50.36354" lon="4.33873">
        <ele>131.36</ele>
        <time>2017-04-23T10:41:18Z</time>
      </trkpt>
      <trkpt lat="50.36371" lon="4.33866">
        <ele>129.43</ele>
        <time>2017-04-23T10:41:34Z</time>
      </trkpt>
      <trkpt lat="50.36384" lon="4.33854">
        <ele>127.99</ele>
        <time>2017-04-23T10:41:45Z</time>
      </trkpt>
      <trkpt lat="50.36385" lon="4.33852">
        <ele>127.99</ele>
        <time>2017-04-23T10:41:46Z</time>
      </trkpt>
      <trkpt lat="50.36394" lon="4.33824">
        <ele>126.07</ele>
        <time>2017-04-23T10:42:02Z</time>
      </trkpt>
      <trkpt lat="50.36401" lon="4.338">
        <ele>124.63</ele>
        <time>2017-04-23T10:42:16Z</time>
      </trkpt>
      <trkpt lat="50.3641" lon="4.33769">
        <ele>123.19</ele>
        <time>2017-04-23T10:42:32Z</time>
      </trkpt>
      <trkpt lat="50.36416" lon="4.33744">
        <ele>121.26</ele>
        <time>2017-04-23T10:42:47Z</time>
      </trkpt>
      <trkpt lat="50.36426" lon="4.33714">
        <ele>119.34</ele>
        <time>2017-04-23T10:43:05Z</time>
      </trkpt>
      <trkpt lat="50.36431" lon="4.33701">
        <ele>118.86</ele>
        <time>2017-04-23T10:43:13Z</time>
      </trkpt>
      <trkpt lat="50.36431" lon="4.33699">
        <ele>118.86</ele>
        <time>2017-04-23T10:43:14Z</time>
      </trkpt>
      <trkpt lat="50.36432" lon="4.33697">
        <ele>118.86</ele>
        <time>2017-04-23T10:43:15Z</time>
      </trkpt>
      <trkpt lat="50.36433" lon="4.33696">
        <ele>118.38</ele>
        <time>2017-04-23T10:43:16Z</time>
      </trkpt>
      <trkpt lat="50.36434" lon="4.33694">
        <ele>118.38</ele>
        <time>2017-04-23T10:43:17Z</time>
      </trkpt>
      <trkpt lat="50.36434" lon="4.33693">
        <ele>118.38</ele>
        <time>2017-04-23T10:43:18Z</time>
      </trkpt>
      <trkpt lat="50.36449" lon="4.33669">
        <ele>116.94</ele>
        <time>2017-04-23T10:43:35Z</time>
      </trkpt>
      <trkpt lat="50.36467" lon="4.33659">
        <ele>115.5</ele>
        <time>2017-04-23T10:43:50Z</time>
      </trkpt>
      <trkpt lat="50.36473" lon="4.33656">
        <ele>115.5</ele>
        <time>2017-04-23T10:44:04Z</time>
      </trkpt>
      <trkpt lat="50.36475" lon="4.33654">
        <ele>115.01</ele>
        <time>2017-04-23T10:44:24Z</time>
      </trkpt>
      <trkpt lat="50.36476" lon="4.33654">
        <ele>115.01</ele>
        <time>2017-04-23T10:44:25Z</time>
      </trkpt>
      <trkpt lat="50.36477" lon="4.33654">
        <ele>115.01</ele>
        <time>2017-04-23T10:44:26Z</time>
      </trkpt>
      <trkpt lat="50.3649" lon="4.33652">
        <ele>114.05</ele>
        <time>2017-04-23T10:44:37Z</time>
      </trkpt>
      <trkpt lat="50.36513" lon="4.33643">
        <ele>112.13</ele>
        <time>2017-04-23T10:44:55Z</time>
      </trkpt>
      <trkpt lat="50.36534" lon="4.33635">
        <ele>110.69</ele>
        <time>2017-04-23T10:45:12Z</time>
      </trkpt>
      <trkpt lat="50.36556" lon="4.33628">
        <ele>110.21</ele>
        <time>2017-04-23T10:45:29Z</time>
      </trkpt>
      <trkpt lat="50.36577" lon="4.33619">
        <ele>109.25</ele>
        <time>2017-04-23T10:45:46Z</time>
      </trkpt>
      <trkpt lat="50.36598" lon="4.33613">
        <ele>107.81</ele>
        <time>2017-04-23T10:46:02Z</time>
      </trkpt>
      <trkpt lat="50.36603" lon="4.33608">
        <ele>107.32</ele>
        <time>2017-04-23T10:46:08Z</time>
      </trkpt>
      <trkpt lat="50.36606" lon="4.33599">
        <ele>106.84</ele>
        <time>2017-04-23T10:46:14Z</time>
      </trkpt>
      <trkpt lat="50.36606" lon="4.33597">
        <ele>106.36</ele>
        <time>2017-04-23T10:46:15Z</time>
      </trkpt>
      <trkpt lat="50.36607" lon="4.33595">
        <ele>106.36</ele>
        <time>2017-04-23T10:46:16Z</time>
      </trkpt>
      <trkpt lat="50.36606" lon="4.33563">
        <ele>105.88</ele>
        <time>2017-04-23T10:46:33Z</time>
      </trkpt>
      <trkpt lat="50.36603" lon="4.33531">
        <ele>105.4</ele>
        <time>2017-04-23T10:46:50Z</time>
      </trkpt>
      <trkpt lat="50.36599" lon="4.33492">
        <ele>105.4</ele>
        <time>2017-04-23T10:47:08Z</time>
      </trkpt>
      <trkpt lat="50.36595" lon="4.33455">
        <ele>105.4</ele>
        <time>2017-04-23T10:47:26Z</time>
      </trkpt>
      <trkpt lat="50.36592" lon="4.33438">
        <ele>105.4</ele>
        <time>2017-04-23T10:47:35Z</time>
      </trkpt>
      <trkpt lat="50.36592" lon="4.33435">
        <ele>105.4</ele>
        <time>2017-04-23T10:47:36Z</time>
      </trkpt>
      <trkpt lat="50.36592" lon="4.33433">
        <ele>105.4</ele>
        <time>2017-04-23T10:47:37Z</time>
      </trkpt>
      <trkpt lat="50.3659" lon="4.33393">
        <ele>105.4</ele>
        <time>2017-04-23T10:47:56Z</time>
      </trkpt>
      <trkpt lat="50.3659" lon="4.33365">
        <ele>106.84</ele>
        <time>2017-04-23T10:48:12Z</time>
      </trkpt>
      <trkpt lat="50.36589" lon="4.33352">
        <ele>107.32</ele>
        <time>2017-04-23T10:48:20Z</time>
      </trkpt>
      <trkpt lat="50.36588" lon="4.33349">
        <ele>107.81</ele>
        <time>2017-04-23T10:48:22Z</time>
      </trkpt>
      <trkpt lat="50.36588" lon="4.33347">
        <ele>108.77</ele>
        <time>2017-04-23T10:48:23Z</time>
      </trkpt>
      <trkpt lat="50.36581" lon="4.33333">
        <ele>108.29</ele>
        <time>2017-04-23T10:48:32Z</time>
      </trkpt>
      <trkpt lat="50.3658" lon="4.33333">
        <ele>108.29</ele>
        <time>2017-04-23T10:48:33Z</time>
      </trkpt>
      <trkpt lat="50.36579" lon="4.33332">
        <ele>108.29</ele>
        <time>2017-04-23T10:48:34Z</time>
      </trkpt>
      <trkpt lat="50.36578" lon="4.3333">
        <ele>109.25</ele>
        <time>2017-04-23T10:48:35Z</time>
      </trkpt>
      <trkpt lat="50.36562" lon="4.33322">
        <ele>109.25</ele>
        <time>2017-04-23T10:48:48Z</time>
      </trkpt>
      <trkpt lat="50.36553" lon="4.33318">
        <ele>109.25</ele>
        <time>2017-04-23T10:48:55Z</time>
      </trkpt>
      <trkpt lat="50.36541" lon="4.3331">
        <ele>109.73</ele>
        <time>2017-04-23T10:49:06Z</time>
      </trkpt>
      <trkpt lat="50.36525" lon="4.33303">
        <ele>109.73</ele>
        <time>2017-04-23T10:49:19Z</time>
      </trkpt>
      <trkpt lat="50.36504" lon="4.33291">
        <ele>110.21</ele>
        <time>2017-04-23T10:49:35Z</time>
      </trkpt>
      <trkpt lat="50.36485" lon="4.33283">
        <ele>110.21</ele>
        <time>2017-04-23T10:49:50Z</time>
      </trkpt>
      <trkpt lat="50.36465" lon="4.33275">
        <ele>110.69</ele>
        <time>2017-04-23T10:50:05Z</time>
      </trkpt>
      <trkpt lat="50.36442" lon="4.33263">
        <ele>110.69</ele>
        <time>2017-04-23T10:50:24Z</time>
      </trkpt>
      <trkpt lat="50.36422" lon="4.33256">
        <ele>111.17</ele>
        <time>2017-04-23T10:50:41Z</time>
      </trkpt>
      <trkpt lat="50.364" lon="4.33266">
        <ele>111.17</ele>
        <time>2017-04-23T10:50:58Z</time>
      </trkpt>
      <trkpt lat="50.36386" lon="4.33282">
        <ele>112.13</ele>
        <time>2017-04-23T10:51:12Z</time>
      </trkpt>
      <trkpt lat="50.36368" lon="4.33308">
        <ele>112.13</ele>
        <time>2017-04-23T10:51:31Z</time>
      </trkpt>
      <trkpt lat="50.36353" lon="4.3333">
        <ele>113.09</ele>
        <time>2017-04-23T10:51:47Z</time>
      </trkpt>
      <trkpt lat="50.36336" lon="4.33354">
        <ele>113.09</ele>
        <time>2017-04-23T10:52:05Z</time>
      </trkpt>
      <trkpt lat="50.36324" lon="4.33374">
        <ele>113.57</ele>
        <time>2017-04-23T10:52:19Z</time>
      </trkpt>
      <trkpt lat="50.36309" lon="4.33396">
        <ele>115.01</ele>
        <time>2017-04-23T10:52:35Z</time>
      </trkpt>
      <trkpt lat="50.36295" lon="4.33417">
        <ele>117.42</ele>
        <time>2017-04-23T10:52:51Z</time>
      </trkpt>
      <trkpt lat="50.36286" lon="4.33428">
        <ele>117.42</ele>
        <time>2017-04-23T10:53:00Z</time>
      </trkpt>
      <trkpt lat="50.36285" lon="4.33429">
        <ele>117.9</ele>
        <time>2017-04-23T10:53:01Z</time>
      </trkpt>
      <trkpt lat="50.36284" lon="4.3343">
        <ele>117.9</ele>
        <time>2017-04-23T10:53:02Z</time>
      </trkpt>
      <trkpt lat="50.36283" lon="4.33431">
        <ele>117.9</ele>
        <time>2017-04-23T10:53:03Z</time>
      </trkpt>
      <trkpt lat="50.36282" lon="4.33432">
        <ele>118.38</ele>
        <time>2017-04-23T10:53:04Z</time>
      </trkpt>
      <trkpt lat="50.36281" lon="4.33433">
        <ele>118.38</ele>
        <time>2017-04-23T10:53:05Z</time>
      </trkpt>
      <trkpt lat="50.3628" lon="4.33435">
        <ele>118.38</ele>
        <time>2017-04-23T10:53:06Z</time>
      </trkpt>
      <trkpt lat="50.36279" lon="4.33436">
        <ele>118.38</ele>
        <time>2017-04-23T10:53:07Z</time>
      </trkpt>
      <trkpt lat="50.36277" lon="4.3344">
        <ele>118.86</ele>
        <time>2017-04-23T10:53:10Z</time>
      </trkpt>
      <trkpt lat="50.36276" lon="4.33441">
        <ele>118.86</ele>
        <time>2017-04-23T10:53:11Z</time>
      </trkpt>
      <trkpt lat="50.36275" lon="4.33442">
        <ele>118.86</ele>
        <time>2017-04-23T10:53:12Z</time>
      </trkpt>
      <trkpt lat="50.36274" lon="4.33443">
        <ele>119.34</ele>
        <time>2017-04-23T10:53:13Z</time>
      </trkpt>
      <trkpt lat="50.36254" lon="4.33458">
        <ele>120.3</ele>
        <time>2017-04-23T10:53:31Z</time>
      </trkpt>
      <trkpt lat="50.36253" lon="4.33458">
        <ele>120.3</ele>
        <time>2017-04-23T10:53:32Z</time>
      </trkpt>
      <trkpt lat="50.36251" lon="4.33459">
        <ele>120.3</ele>
        <time>2017-04-23T10:53:33Z</time>
      </trkpt>
      <trkpt lat="50.36236" lon="4.3347">
        <ele>121.26</ele>
        <time>2017-04-23T10:53:46Z</time>
      </trkpt>
      <trkpt lat="50.3622" lon="4.33481">
        <ele>121.74</ele>
        <time>2017-04-23T10:54:01Z</time>
      </trkpt>
      <trkpt lat="50.36217" lon="4.33484">
        <ele>122.22</ele>
        <time>2017-04-23T10:54:04Z</time>
      </trkpt>
      <trkpt lat="50.36216" lon="4.33485">
        <ele>122.71</ele>
        <time>2017-04-23T10:54:05Z</time>
      </trkpt>
      <trkpt lat="50.36215" lon="4.33486">
        <ele>122.71</ele>
        <time>2017-04-23T10:54:06Z</time>
      </trkpt>
      <trkpt lat="50.36202" lon="4.33497">
        <ele>123.67</ele>
        <time>2017-04-23T10:54:18Z</time>
      </trkpt>
      <trkpt lat="50.36183" lon="4.33509">
        <ele>125.59</ele>
        <time>2017-04-23T10:54:33Z</time>
      </trkpt>
      <trkpt lat="50.36173" lon="4.33518">
        <ele>126.07</ele>
        <time>2017-04-23T10:54:43Z</time>
      </trkpt>
      <trkpt lat="50.36154" lon="4.33529">
        <ele>127.51</ele>
        <time>2017-04-23T10:54:58Z</time>
      </trkpt>
      <trkpt lat="50.36138" lon="4.33541">
        <ele>128.47</ele>
        <time>2017-04-23T10:55:12Z</time>
      </trkpt>
      <trkpt lat="50.36117" lon="4.33553">
        <ele>129.92</ele>
        <time>2017-04-23T10:55:29Z</time>
      </trkpt>
      <trkpt lat="50.36099" lon="4.33565">
        <ele>130.4</ele>
        <time>2017-04-23T10:55:43Z</time>
      </trkpt>
      <trkpt lat="50.36077" lon="4.33568">
        <ele>127.99</ele>
        <time>2017-04-23T10:56:02Z</time>
      </trkpt>
      <trkpt lat="50.36059" lon="4.33569">
        <ele>127.03</ele>
        <time>2017-04-23T10:56:16Z</time>
      </trkpt>
      <trkpt lat="50.36039" lon="4.33566">
        <ele>124.63</ele>
        <time>2017-04-23T10:56:31Z</time>
      </trkpt>
      <trkpt lat="50.36029" lon="4.33552">
        <ele>122.22</ele>
        <time>2017-04-23T10:56:44Z</time>
      </trkpt>
      <trkpt lat="50.36018" lon="4.33529">
        <ele>119.82</ele>
        <time>2017-04-23T10:56:59Z</time>
      </trkpt>
      <trkpt lat="50.36005" lon="4.33505">
        <ele>119.34</ele>
        <time>2017-04-23T10:57:14Z</time>
      </trkpt>
      <trkpt lat="50.35993" lon="4.33481">
        <ele>118.86</ele>
        <time>2017-04-23T10:57:29Z</time>
      </trkpt>
      <trkpt lat="50.3598" lon="4.33456">
        <ele>118.86</ele>
        <time>2017-04-23T10:57:46Z</time>
      </trkpt>
      <trkpt lat="50.35967" lon="4.33428">
        <ele>118.86</ele>
        <time>2017-04-23T10:58:03Z</time>
      </trkpt>
      <trkpt lat="50.35955" lon="4.33403">
        <ele>118.86</ele>
        <time>2017-04-23T10:58:20Z</time>
      </trkpt>
      <trkpt lat="50.35948" lon="4.3339">
        <ele>118.86</ele>
        <time>2017-04-23T10:58:28Z</time>
      </trkpt>
      <trkpt lat="50.35945" lon="4.33384">
        <ele>118.86</ele>
        <time>2017-04-23T10:58:32Z</time>
      </trkpt>
      <trkpt lat="50.35932" lon="4.33358">
        <ele>118.86</ele>
        <time>2017-04-23T10:58:48Z</time>
      </trkpt>
      <trkpt lat="50.35924" lon="4.33342">
        <ele>120.3</ele>
        <time>2017-04-23T10:58:59Z</time>
      </trkpt>
      <trkpt lat="50.35922" lon="4.33322">
        <ele>120.78</ele>
        <time>2017-04-23T10:59:12Z</time>
      </trkpt>
      <trkpt lat="50.35928" lon="4.333">
        <ele>120.3</ele>
        <time>2017-04-23T10:59:27Z</time>
      </trkpt>
      <trkpt lat="50.35928" lon="4.33294">
        <ele>120.3</ele>
        <time>2017-04-23T10:59:43Z</time>
      </trkpt>
      <trkpt lat="50.35926" lon="4.33293">
        <ele>121.74</ele>
        <time>2017-04-23T10:59:49Z</time>
      </trkpt>
      <trkpt lat="50.35927" lon="4.33292">
        <ele>121.74</ele>
        <time>2017-04-23T11:00:05Z</time>
      </trkpt>
      <trkpt lat="50.35927" lon="4.33284">
        <ele>122.71</ele>
        <time>2017-04-23T11:00:21Z</time>
      </trkpt>
      <trkpt lat="50.35927" lon="4.33288">
        <ele>121.74</ele>
        <time>2017-04-23T11:00:56Z</time>
      </trkpt>
      <trkpt lat="50.35926" lon="4.33294">
        <ele>121.74</ele>
        <time>2017-04-23T11:01:07Z</time>
      </trkpt>
      <trkpt lat="50.35926" lon="4.33296">
        <ele>120.78</ele>
        <time>2017-04-23T11:01:23Z</time>
      </trkpt>
      <trkpt lat="50.35926" lon="4.33296">
        <ele>120.78</ele>
        <time>2017-04-23T11:01:56Z</time>
      </trkpt>
      <trkpt lat="50.35924" lon="4.33295">
        <ele>120.78</ele>
        <time>2017-04-23T11:02:36Z</time>
      </trkpt>
      <trkpt lat="50.35925" lon="4.33296">
        <ele>120.78</ele>
        <time>2017-04-23T11:03:18Z</time>
      </trkpt>
      <trkpt lat="50.35924" lon="4.33293">
        <ele>120.78</ele>
        <time>2017-04-23T11:03:54Z</time>
      </trkpt>
      <trkpt lat="50.35925" lon="4.33295">
        <ele>120.3</ele>
        <time>2017-04-23T11:04:33Z</time>
      </trkpt>
      <trkpt lat="50.35926" lon="4.33296">
        <ele>121.74</ele>
        <time>2017-04-23T11:05:07Z</time>
      </trkpt>
      <trkpt lat="50.35923" lon="4.33296">
        <ele>121.26</ele>
        <time>2017-04-23T11:05:38Z</time>
      </trkpt>
      <trkpt lat="50.35925" lon="4.33294">
        <ele>121.26</ele>
        <time>2017-04-23T11:06:09Z</time>
      </trkpt>
      <trkpt lat="50.35928" lon="4.33296">
        <ele>121.26</ele>
        <time>2017-04-23T11:06:49Z</time>
      </trkpt>
      <trkpt lat="50.35928" lon="4.33296">
        <ele>121.26</ele>
        <time>2017-04-23T11:07:24Z</time>
      </trkpt>
      <trkpt lat="50.35927" lon="4.33293">
        <ele>121.26</ele>
        <time>2017-04-23T11:07:54Z</time>
      </trkpt>
      <trkpt lat="50.35928" lon="4.33292">
        <ele>121.26</ele>
        <time>2017-04-23T11:08:32Z</time>
      </trkpt>
      <trkpt lat="50.35925" lon="4.33289">
        <ele>121.26</ele>
        <time>2017-04-23T11:09:04Z</time>
      </trkpt>
      <trkpt lat="50.35925" lon="4.33291">
        <ele>120.78</ele>
        <time>2017-04-23T11:09:36Z</time>
      </trkpt>
      <trkpt lat="50.35926" lon="4.33291">
        <ele>120.78</ele>
        <time>2017-04-23T11:10:10Z</time>
      </trkpt>
      <trkpt lat="50.35927" lon="4.33292">
        <ele>120.78</ele>
        <time>2017-04-23T11:10:43Z</time>
      </trkpt>
      <trkpt lat="50.35929" lon="4.33294">
        <ele>120.78</ele>
        <time>2017-04-23T11:11:22Z</time>
      </trkpt>
      <trkpt lat="50.35928" lon="4.33295">
        <ele>121.26</ele>
        <time>2017-04-23T11:12:01Z</time>
      </trkpt>
      <trkpt lat="50.35928" lon="4.33293">
        <ele>120.78</ele>
        <time>2017-04-23T11:12:39Z</time>
      </trkpt>
      <trkpt lat="50.35929" lon="4.33291">
        <ele>120.78</ele>
        <time>2017-04-23T11:13:24Z</time>
      </trkpt>
      <trkpt lat="50.3593" lon="4.33294">
        <ele>120.78</ele>
        <time>2017-04-23T11:14:06Z</time>
      </trkpt>
      <trkpt lat="50.35925" lon="4.33295">
        <ele>120.78</ele>
        <time>2017-04-23T11:14:47Z</time>
      </trkpt>
      <trkpt lat="50.3593" lon="4.33296">
        <ele>120.78</ele>
        <time>2017-04-23T11:15:11Z</time>
      </trkpt>
      <trkpt lat="50.35927" lon="4.33294">
        <ele>121.26</ele>
        <time>2017-04-23T11:15:31Z</time>
      </trkpt>
      <trkpt lat="50.35925" lon="4.33294">
        <ele>121.26</ele>
        <time>2017-04-23T11:15:59Z</time>
      </trkpt>
      <trkpt lat="50.35928" lon="4.33295">
        <ele>122.22</ele>
        <time>2017-04-23T11:16:23Z</time>
      </trkpt>
      <trkpt lat="50.35926" lon="4.33296">
        <ele>122.22</ele>
        <time>2017-04-23T11:16:38Z</time>
      </trkpt>
      <trkpt lat="50.35926" lon="4.33295">
        <ele>122.22</ele>
        <time>2017-04-23T11:16:52Z</time>
      </trkpt>
      <trkpt lat="50.35926" lon="4.33295">
        <ele>121.26</ele>
        <time>2017-04-23T11:17:12Z</time>
      </trkpt>
      <trkpt lat="50.35932" lon="4.33307">
        <ele>121.26</ele>
        <time>2017-04-23T11:17:29Z</time>
      </trkpt>
      <trkpt lat="50.35928" lon="4.33307">
        <ele>120.78</ele>
        <time>2017-04-23T11:17:47Z</time>
      </trkpt>
      <trkpt lat="50.35928" lon="4.33306">
        <ele>120.3</ele>
        <time>2017-04-23T11:18:02Z</time>
      </trkpt>
      <trkpt lat="50.35927" lon="4.33296">
        <ele>121.26</ele>
        <time>2017-04-23T11:18:17Z</time>
      </trkpt>
      <trkpt lat="50.35928" lon="4.33296">
        <ele>121.74</ele>
        <time>2017-04-23T11:18:38Z</time>
      </trkpt>
      <trkpt lat="50.35929" lon="4.33297">
        <ele>121.74</ele>
        <time>2017-04-23T11:19:11Z</time>
      </trkpt>
      <trkpt lat="50.3593" lon="4.33301">
        <ele>122.71</ele>
        <time>2017-04-23T11:19:25Z</time>
      </trkpt>
      <trkpt lat="50.35929" lon="4.33303">
        <ele>120.3</ele>
        <time>2017-04-23T11:19:28Z</time>
      </trkpt>
      <trkpt lat="50.35928" lon="4.33305">
        <ele>122.71</ele>
        <time>2017-04-23T11:19:29Z</time>
      </trkpt>
      <trkpt lat="50.35925" lon="4.33309">
        <ele>121.74</ele>
        <time>2017-04-23T11:19:32Z</time>
      </trkpt>
      <trkpt lat="50.35918" lon="4.33318">
        <ele>121.74</ele>
        <time>2017-04-23T11:19:41Z</time>
      </trkpt>
      <trkpt lat="50.35912" lon="4.33313">
        <ele>121.74</ele>
        <time>2017-04-23T11:19:48Z</time>
      </trkpt>
      <trkpt lat="50.35908" lon="4.33305">
        <ele>121.74</ele>
        <time>2017-04-23T11:19:54Z</time>
      </trkpt>
      <trkpt lat="50.35904" lon="4.33293">
        <ele>122.71</ele>
        <time>2017-04-23T11:20:01Z</time>
      </trkpt>
      <trkpt lat="50.35896" lon="4.33273">
        <ele>124.15</ele>
        <time>2017-04-23T11:20:14Z</time>
      </trkpt>
      <trkpt lat="50.35884" lon="4.33251">
        <ele>126.07</ele>
        <time>2017-04-23T11:20:30Z</time>
      </trkpt>
      <trkpt lat="50.35876" lon="4.33229">
        <ele>127.99</ele>
        <time>2017-04-23T11:20:45Z</time>
      </trkpt>
      <trkpt lat="50.35869" lon="4.33205">
        <ele>129.43</ele>
        <time>2017-04-23T11:21:01Z</time>
      </trkpt>
      <trkpt lat="50.35862" lon="4.33183">
        <ele>131.36</ele>
        <time>2017-04-23T11:21:17Z</time>
      </trkpt>
      <trkpt lat="50.35855" lon="4.33158">
        <ele>133.76</ele>
        <time>2017-04-23T11:21:31Z</time>
      </trkpt>
      <trkpt lat="50.35853" lon="4.33146">
        <ele>134.24</ele>
        <time>2017-04-23T11:21:38Z</time>
      </trkpt>
      <trkpt lat="50.35852" lon="4.33117">
        <ele>136.16</ele>
        <time>2017-04-23T11:21:55Z</time>
      </trkpt>
      <trkpt lat="50.35852" lon="4.33092">
        <ele>139.05</ele>
        <time>2017-04-23T11:22:12Z</time>
      </trkpt>
      <trkpt lat="50.35848" lon="4.33072">
        <ele>140.97</ele>
        <time>2017-04-23T11:22:26Z</time>
      </trkpt>
      <trkpt lat="50.35838" lon="4.33046">
        <ele>143.85</ele>
        <time>2017-04-23T11:22:46Z</time>
      </trkpt>
      <trkpt lat="50.35829" lon="4.33035">
        <ele>145.78</ele>
        <time>2017-04-23T11:23:01Z</time>
      </trkpt>
      <trkpt lat="50.35818" lon="4.33022">
        <ele>148.66</ele>
        <time>2017-04-23T11:23:19Z</time>
      </trkpt>
      <trkpt lat="50.35805" lon="4.33013">
        <ele>150.1</ele>
        <time>2017-04-23T11:23:34Z</time>
      </trkpt>
      <trkpt lat="50.35796" lon="4.33012">
        <ele>152.99</ele>
        <time>2017-04-23T11:23:49Z</time>
      </trkpt>
      <trkpt lat="50.35782" lon="4.33017">
        <ele>154.91</ele>
        <time>2017-04-23T11:24:06Z</time>
      </trkpt>
      <trkpt lat="50.35765" lon="4.33028">
        <ele>157.31</ele>
        <time>2017-04-23T11:24:25Z</time>
      </trkpt>
      <trkpt lat="50.35753" lon="4.33036">
        <ele>159.24</ele>
        <time>2017-04-23T11:24:42Z</time>
      </trkpt>
      <trkpt lat="50.3574" lon="4.33033">
        <ele>162.12</ele>
        <time>2017-04-23T11:24:59Z</time>
      </trkpt>
      <trkpt lat="50.35732" lon="4.33023">
        <ele>163.56</ele>
        <time>2017-04-23T11:25:15Z</time>
      </trkpt>
      <trkpt lat="50.35727" lon="4.33008">
        <ele>166.45</ele>
        <time>2017-04-23T11:25:32Z</time>
      </trkpt>
      <trkpt lat="50.35723" lon="4.32991">
        <ele>168.85</ele>
        <time>2017-04-23T11:25:47Z</time>
      </trkpt>
      <trkpt lat="50.35718" lon="4.32976">
        <ele>170.77</ele>
        <time>2017-04-23T11:26:03Z</time>
      </trkpt>
      <trkpt lat="50.35714" lon="4.32959">
        <ele>173.17</ele>
        <time>2017-04-23T11:26:21Z</time>
      </trkpt>
      <trkpt lat="50.35707" lon="4.32938">
        <ele>176.06</ele>
        <time>2017-04-23T11:26:39Z</time>
      </trkpt>
      <trkpt lat="50.35696" lon="4.32915">
        <ele>177.98</ele>
        <time>2017-04-23T11:26:57Z</time>
      </trkpt>
      <trkpt lat="50.35686" lon="4.32896">
        <ele>179.42</ele>
        <time>2017-04-23T11:27:10Z</time>
      </trkpt>
      <trkpt lat="50.35677" lon="4.32881">
        <ele>179.9</ele>
        <time>2017-04-23T11:27:24Z</time>
      </trkpt>
      <trkpt lat="50.3567" lon="4.32868">
        <ele>180.87</ele>
        <time>2017-04-23T11:27:34Z</time>
      </trkpt>
      <trkpt lat="50.35668" lon="4.32839">
        <ele>180.87</ele>
        <time>2017-04-23T11:27:50Z</time>
      </trkpt>
      <trkpt lat="50.35669" lon="4.32809">
        <ele>181.83</ele>
        <time>2017-04-23T11:28:07Z</time>
      </trkpt>
      <trkpt lat="50.35668" lon="4.3279">
        <ele>182.31</ele>
        <time>2017-04-23T11:28:17Z</time>
      </trkpt>
      <trkpt lat="50.35672" lon="4.32758">
        <ele>183.27</ele>
        <time>2017-04-23T11:28:34Z</time>
      </trkpt>
      <trkpt lat="50.35668" lon="4.3273">
        <ele>183.27</ele>
        <time>2017-04-23T11:28:50Z</time>
      </trkpt>
      <trkpt lat="50.35654" lon="4.32702">
        <ele>184.23</ele>
        <time>2017-04-23T11:29:07Z</time>
      </trkpt>
      <trkpt lat="50.35637" lon="4.3268">
        <ele>184.23</ele>
        <time>2017-04-23T11:29:25Z</time>
      </trkpt>
      <trkpt lat="50.3562" lon="4.32664">
        <ele>184.71</ele>
        <time>2017-04-23T11:29:41Z</time>
      </trkpt>
      <trkpt lat="50.356" lon="4.32646">
        <ele>185.19</ele>
        <time>2017-04-23T11:30:00Z</time>
      </trkpt>
      <trkpt lat="50.35581" lon="4.3263">
        <ele>185.19</ele>
        <time>2017-04-23T11:30:17Z</time>
      </trkpt>
      <trkpt lat="50.35562" lon="4.32612">
        <ele>185.67</ele>
        <time>2017-04-23T11:30:34Z</time>
      </trkpt>
      <trkpt lat="50.35543" lon="4.32594">
        <ele>186.15</ele>
        <time>2017-04-23T11:30:52Z</time>
      </trkpt>
      <trkpt lat="50.35523" lon="4.32576">
        <ele>186.15</ele>
        <time>2017-04-23T11:31:10Z</time>
      </trkpt>
      <trkpt lat="50.35502" lon="4.32557">
        <ele>186.63</ele>
        <time>2017-04-23T11:31:29Z</time>
      </trkpt>
      <trkpt lat="50.35482" lon="4.32537">
        <ele>187.11</ele>
        <time>2017-04-23T11:31:48Z</time>
      </trkpt>
      <trkpt lat="50.3546" lon="4.32516">
        <ele>187.11</ele>
        <time>2017-04-23T11:32:08Z</time>
      </trkpt>
      <trkpt lat="50.35438" lon="4.32496">
        <ele>187.59</ele>
        <time>2017-04-23T11:32:28Z</time>
      </trkpt>
      <trkpt lat="50.3542" lon="4.3248">
        <ele>188.08</ele>
        <time>2017-04-23T11:32:44Z</time>
      </trkpt>
      <trkpt lat="50.35402" lon="4.32457">
        <ele>188.56</ele>
        <time>2017-04-23T11:33:02Z</time>
      </trkpt>
      <trkpt lat="50.35383" lon="4.32434">
        <ele>189.04</ele>
        <time>2017-04-23T11:33:21Z</time>
      </trkpt>
      <trkpt lat="50.35366" lon="4.32422">
        <ele>189.04</ele>
        <time>2017-04-23T11:33:36Z</time>
      </trkpt>
      <trkpt lat="50.35344" lon="4.32412">
        <ele>189.52</ele>
        <time>2017-04-23T11:33:53Z</time>
      </trkpt>
      <trkpt lat="50.35322" lon="4.32405">
        <ele>189.52</ele>
        <time>2017-04-23T11:34:10Z</time>
      </trkpt>
      <trkpt lat="50.35303" lon="4.32398">
        <ele>190</ele>
        <time>2017-04-23T11:34:26Z</time>
      </trkpt>
      <trkpt lat="50.35283" lon="4.32385">
        <ele>190.48</ele>
        <time>2017-04-23T11:34:43Z</time>
      </trkpt>
      <trkpt lat="50.35267" lon="4.32358">
        <ele>190.48</ele>
        <time>2017-04-23T11:35:02Z</time>
      </trkpt>
      <trkpt lat="50.35249" lon="4.32331">
        <ele>190.96</ele>
        <time>2017-04-23T11:35:21Z</time>
      </trkpt>
      <trkpt lat="50.35235" lon="4.32313">
        <ele>191.44</ele>
        <time>2017-04-23T11:35:37Z</time>
      </trkpt>
      <trkpt lat="50.35217" lon="4.32295">
        <ele>191.92</ele>
        <time>2017-04-23T11:35:54Z</time>
      </trkpt>
      <trkpt lat="50.35204" lon="4.32282">
        <ele>192.4</ele>
        <time>2017-04-23T11:36:06Z</time>
      </trkpt>
      <trkpt lat="50.35193" lon="4.32249">
        <ele>192.4</ele>
        <time>2017-04-23T11:36:24Z</time>
      </trkpt>
      <trkpt lat="50.35184" lon="4.32211">
        <ele>192.4</ele>
        <time>2017-04-23T11:36:43Z</time>
      </trkpt>
      <trkpt lat="50.35165" lon="4.32183">
        <ele>192.4</ele>
        <time>2017-04-23T11:37:04Z</time>
      </trkpt>
      <trkpt lat="50.35143" lon="4.3216">
        <ele>192.4</ele>
        <time>2017-04-23T11:37:24Z</time>
      </trkpt>
      <trkpt lat="50.3512" lon="4.3214">
        <ele>193.36</ele>
        <time>2017-04-23T11:37:45Z</time>
      </trkpt>
      <trkpt lat="50.35098" lon="4.32125">
        <ele>193.36</ele>
        <time>2017-04-23T11:38:04Z</time>
      </trkpt>
      <trkpt lat="50.35075" lon="4.32118">
        <ele>193.36</ele>
        <time>2017-04-23T11:38:21Z</time>
      </trkpt>
      <trkpt lat="50.35055" lon="4.32117">
        <ele>193.84</ele>
        <time>2017-04-23T11:38:37Z</time>
      </trkpt>
      <trkpt lat="50.35033" lon="4.3212">
        <ele>194.8</ele>
        <time>2017-04-23T11:38:55Z</time>
      </trkpt>
      <trkpt lat="50.35011" lon="4.32123">
        <ele>195.28</ele>
        <time>2017-04-23T11:39:12Z</time>
      </trkpt>
      <trkpt lat="50.34985" lon="4.32126">
        <ele>195.77</ele>
        <time>2017-04-23T11:39:32Z</time>
      </trkpt>
      <trkpt lat="50.3496" lon="4.32127">
        <ele>196.25</ele>
        <time>2017-04-23T11:39:52Z</time>
      </trkpt>
      <trkpt lat="50.34939" lon="4.32129">
        <ele>196.73</ele>
        <time>2017-04-23T11:40:08Z</time>
      </trkpt>
      <trkpt lat="50.3492" lon="4.3213">
        <ele>197.21</ele>
        <time>2017-04-23T11:40:22Z</time>
      </trkpt>
      <trkpt lat="50.34918" lon="4.32129">
        <ele>197.21</ele>
        <time>2017-04-23T11:40:24Z</time>
      </trkpt>
      <trkpt lat="50.34896" lon="4.32131">
        <ele>197.21</ele>
        <time>2017-04-23T11:40:41Z</time>
      </trkpt>
      <trkpt lat="50.34889" lon="4.32132">
        <ele>197.69</ele>
        <time>2017-04-23T11:40:46Z</time>
      </trkpt>
      <trkpt lat="50.34884" lon="4.32132">
        <ele>197.69</ele>
        <time>2017-04-23T11:40:50Z</time>
      </trkpt>
      <trkpt lat="50.34865" lon="4.3212">
        <ele>197.69</ele>
        <time>2017-04-23T11:41:06Z</time>
      </trkpt>
      <trkpt lat="50.34846" lon="4.32094">
        <ele>198.65</ele>
        <time>2017-04-23T11:41:25Z</time>
      </trkpt>
      <trkpt lat="50.34828" lon="4.32079">
        <ele>198.65</ele>
        <time>2017-04-23T11:41:41Z</time>
      </trkpt>
      <trkpt lat="50.34806" lon="4.32072">
        <ele>198.65</ele>
        <time>2017-04-23T11:41:59Z</time>
      </trkpt>
      <trkpt lat="50.34784" lon="4.32072">
        <ele>199.13</ele>
        <time>2017-04-23T11:42:16Z</time>
      </trkpt>
      <trkpt lat="50.34763" lon="4.32075">
        <ele>199.13</ele>
        <time>2017-04-23T11:42:33Z</time>
      </trkpt>
      <trkpt lat="50.34742" lon="4.32089">
        <ele>200.09</ele>
        <time>2017-04-23T11:42:51Z</time>
      </trkpt>
      <trkpt lat="50.34723" lon="4.32107">
        <ele>200.57</ele>
        <time>2017-04-23T11:43:09Z</time>
      </trkpt>
      <trkpt lat="50.347" lon="4.32115">
        <ele>201.53</ele>
        <time>2017-04-23T11:43:27Z</time>
      </trkpt>
      <trkpt lat="50.34677" lon="4.32118">
        <ele>201.53</ele>
        <time>2017-04-23T11:43:45Z</time>
      </trkpt>
      <trkpt lat="50.34652" lon="4.32121">
        <ele>202.01</ele>
        <time>2017-04-23T11:44:03Z</time>
      </trkpt>
      <trkpt lat="50.34631" lon="4.32126">
        <ele>202.49</ele>
        <time>2017-04-23T11:44:20Z</time>
      </trkpt>
      <trkpt lat="50.34612" lon="4.32126">
        <ele>202.98</ele>
        <time>2017-04-23T11:44:35Z</time>
      </trkpt>
      <trkpt lat="50.34592" lon="4.32123">
        <ele>202.98</ele>
        <time>2017-04-23T11:44:51Z</time>
      </trkpt>
      <trkpt lat="50.34572" lon="4.32116">
        <ele>203.46</ele>
        <time>2017-04-23T11:45:06Z</time>
      </trkpt>
      <trkpt lat="50.34569" lon="4.32115">
        <ele>203.46</ele>
        <time>2017-04-23T11:45:08Z</time>
      </trkpt>
      <trkpt lat="50.34564" lon="4.32113">
        <ele>203.46</ele>
        <time>2017-04-23T11:45:12Z</time>
      </trkpt>
      <trkpt lat="50.34542" lon="4.32108">
        <ele>203.46</ele>
        <time>2017-04-23T11:45:29Z</time>
      </trkpt>
      <trkpt lat="50.34517" lon="4.3211">
        <ele>203.94</ele>
        <time>2017-04-23T11:45:48Z</time>
      </trkpt>
      <trkpt lat="50.34493" lon="4.32113">
        <ele>204.9</ele>
        <time>2017-04-23T11:46:06Z</time>
      </trkpt>
      <trkpt lat="50.34474" lon="4.32119">
        <ele>204.9</ele>
        <time>2017-04-23T11:46:22Z</time>
      </trkpt>
      <trkpt lat="50.34454" lon="4.32122">
        <ele>204.9</ele>
        <time>2017-04-23T11:46:37Z</time>
      </trkpt>
      <trkpt lat="50.34432" lon="4.3212">
        <ele>205.38</ele>
        <time>2017-04-23T11:46:54Z</time>
      </trkpt>
      <trkpt lat="50.3441" lon="4.32109">
        <ele>205.38</ele>
        <time>2017-04-23T11:47:11Z</time>
      </trkpt>
      <trkpt lat="50.34389" lon="4.32095">
        <ele>205.38</ele>
        <time>2017-04-23T11:47:29Z</time>
      </trkpt>
      <trkpt lat="50.34366" lon="4.32083">
        <ele>205.38</ele>
        <time>2017-04-23T11:47:47Z</time>
      </trkpt>
      <trkpt lat="50.34344" lon="4.32075">
        <ele>205.38</ele>
        <time>2017-04-23T11:48:04Z</time>
      </trkpt>
      <trkpt lat="50.34323" lon="4.32066">
        <ele>205.38</ele>
        <time>2017-04-23T11:48:20Z</time>
      </trkpt>
      <trkpt lat="50.34302" lon="4.32055">
        <ele>205.86</ele>
        <time>2017-04-23T11:48:37Z</time>
      </trkpt>
      <trkpt lat="50.34281" lon="4.32044">
        <ele>205.86</ele>
        <time>2017-04-23T11:48:54Z</time>
      </trkpt>
      <trkpt lat="50.3426" lon="4.32029">
        <ele>205.86</ele>
        <time>2017-04-23T11:49:11Z</time>
      </trkpt>
      <trkpt lat="50.3424" lon="4.32011">
        <ele>205.86</ele>
        <time>2017-04-23T11:49:28Z</time>
      </trkpt>
      <trkpt lat="50.34219" lon="4.31983">
        <ele>205.86</ele>
        <time>2017-04-23T11:49:48Z</time>
      </trkpt>
      <trkpt lat="50.34201" lon="4.31953">
        <ele>206.34</ele>
        <time>2017-04-23T11:50:07Z</time>
      </trkpt>
      <trkpt lat="50.34184" lon="4.31925">
        <ele>207.3</ele>
        <time>2017-04-23T11:50:26Z</time>
      </trkpt>
      <trkpt lat="50.34163" lon="4.3191">
        <ele>206.82</ele>
        <time>2017-04-23T11:50:44Z</time>
      </trkpt>
      <trkpt lat="50.34142" lon="4.31905">
        <ele>207.3</ele>
        <time>2017-04-23T11:51:01Z</time>
      </trkpt>
      <trkpt lat="50.3412" lon="4.31901">
        <ele>207.3</ele>
        <time>2017-04-23T11:51:18Z</time>
      </trkpt>
      <trkpt lat="50.34101" lon="4.31898">
        <ele>205.86</ele>
        <time>2017-04-23T11:51:33Z</time>
      </trkpt>
      <trkpt lat="50.34076" lon="4.31899">
        <ele>205.86</ele>
        <time>2017-04-23T11:51:52Z</time>
      </trkpt>
      <trkpt lat="50.34052" lon="4.31908">
        <ele>205.38</ele>
        <time>2017-04-23T11:52:10Z</time>
      </trkpt>
      <trkpt lat="50.34036" lon="4.31913">
        <ele>204.9</ele>
        <time>2017-04-23T11:52:23Z</time>
      </trkpt>
      <trkpt lat="50.34023" lon="4.31917">
        <ele>204.42</ele>
        <time>2017-04-23T11:52:33Z</time>
      </trkpt>
      <trkpt lat="50.33999" lon="4.31915">
        <ele>203.94</ele>
        <time>2017-04-23T11:52:52Z</time>
      </trkpt>
      <trkpt lat="50.33975" lon="4.31897">
        <ele>203.46</ele>
        <time>2017-04-23T11:53:11Z</time>
      </trkpt>
      <trkpt lat="50.33955" lon="4.31871">
        <ele>203.46</ele>
        <time>2017-04-23T11:53:30Z</time>
      </trkpt>
      <trkpt lat="50.33933" lon="4.31842">
        <ele>203.46</ele>
        <time>2017-04-23T11:53:51Z</time>
      </trkpt>
      <trkpt lat="50.33912" lon="4.31814">
        <ele>202.98</ele>
        <time>2017-04-23T11:54:11Z</time>
      </trkpt>
      <trkpt lat="50.33891" lon="4.31785">
        <ele>202.98</ele>
        <time>2017-04-23T11:54:32Z</time>
      </trkpt>
      <trkpt lat="50.33871" lon="4.31758">
        <ele>202.49</ele>
        <time>2017-04-23T11:54:51Z</time>
      </trkpt>
      <trkpt lat="50.33851" lon="4.31731">
        <ele>202.01</ele>
        <time>2017-04-23T11:55:11Z</time>
      </trkpt>
      <trkpt lat="50.3383" lon="4.31704">
        <ele>201.53</ele>
        <time>2017-04-23T11:55:31Z</time>
      </trkpt>
      <trkpt lat="50.33812" lon="4.3168">
        <ele>201.53</ele>
        <time>2017-04-23T11:55:49Z</time>
      </trkpt>
      <trkpt lat="50.33792" lon="4.31653">
        <ele>201.53</ele>
        <time>2017-04-23T11:56:08Z</time>
      </trkpt>
      <trkpt lat="50.33772" lon="4.31625">
        <ele>201.53</ele>
        <time>2017-04-23T11:56:28Z</time>
      </trkpt>
      <trkpt lat="50.33757" lon="4.31605">
        <ele>201.05</ele>
        <time>2017-04-23T11:56:43Z</time>
      </trkpt>
      <trkpt lat="50.33739" lon="4.31582">
        <ele>200.57</ele>
        <time>2017-04-23T11:57:00Z</time>
      </trkpt>
      <trkpt lat="50.33719" lon="4.31554">
        <ele>200.09</ele>
        <time>2017-04-23T11:57:20Z</time>
      </trkpt>
      <trkpt lat="50.33699" lon="4.31525">
        <ele>199.61</ele>
        <time>2017-04-23T11:57:40Z</time>
      </trkpt>
      <trkpt lat="50.33682" lon="4.31495">
        <ele>198.65</ele>
        <time>2017-04-23T11:57:59Z</time>
      </trkpt>
      <trkpt lat="50.33668" lon="4.31464">
        <ele>198.65</ele>
        <time>2017-04-23T11:58:17Z</time>
      </trkpt>
      <trkpt lat="50.33667" lon="4.31461">
        <ele>200.09</ele>
        <time>2017-04-23T11:58:19Z</time>
      </trkpt>
      <trkpt lat="50.33652" lon="4.31431">
        <ele>200.57</ele>
        <time>2017-04-23T11:58:37Z</time>
      </trkpt>
      <trkpt lat="50.33638" lon="4.31403">
        <ele>201.05</ele>
        <time>2017-04-23T11:58:54Z</time>
      </trkpt>
      <trkpt lat="50.33624" lon="4.3137">
        <ele>201.53</ele>
        <time>2017-04-23T11:59:13Z</time>
      </trkpt>
      <trkpt lat="50.33606" lon="4.31341">
        <ele>202.01</ele>
        <time>2017-04-23T11:59:33Z</time>
      </trkpt>
      <trkpt lat="50.33587" lon="4.31319">
        <ele>202.01</ele>
        <time>2017-04-23T11:59:51Z</time>
      </trkpt>
      <trkpt lat="50.33568" lon="4.31301">
        <ele>202.01</ele>
        <time>2017-04-23T12:00:08Z</time>
      </trkpt>
      <trkpt lat="50.33544" lon="4.31282">
        <ele>201.05</ele>
        <time>2017-04-23T12:00:28Z</time>
      </trkpt>
      <trkpt lat="50.33523" lon="4.31267">
        <ele>201.05</ele>
        <time>2017-04-23T12:00:45Z</time>
      </trkpt>
      <trkpt lat="50.33501" lon="4.31253">
        <ele>200.57</ele>
        <time>2017-04-23T12:01:03Z</time>
      </trkpt>
      <trkpt lat="50.33476" lon="4.31236">
        <ele>200.57</ele>
        <time>2017-04-23T12:01:22Z</time>
      </trkpt>
      <trkpt lat="50.33455" lon="4.31225">
        <ele>200.09</ele>
        <time>2017-04-23T12:01:39Z</time>
      </trkpt>
      <trkpt lat="50.33431" lon="4.31214">
        <ele>200.09</ele>
        <time>2017-04-23T12:01:58Z</time>
      </trkpt>
      <trkpt lat="50.33407" lon="4.31208">
        <ele>200.09</ele>
        <time>2017-04-23T12:02:16Z</time>
      </trkpt>
      <trkpt lat="50.33383" lon="4.31205">
        <ele>200.09</ele>
        <time>2017-04-23T12:02:34Z</time>
      </trkpt>
      <trkpt lat="50.33361" lon="4.31196">
        <ele>199.13</ele>
        <time>2017-04-23T12:02:51Z</time>
      </trkpt>
      <trkpt lat="50.33334" lon="4.31177">
        <ele>198.65</ele>
        <time>2017-04-23T12:03:12Z</time>
      </trkpt>
      <trkpt lat="50.33311" lon="4.31161">
        <ele>198.17</ele>
        <time>2017-04-23T12:03:31Z</time>
      </trkpt>
      <trkpt lat="50.33287" lon="4.31152">
        <ele>197.21</ele>
        <time>2017-04-23T12:03:50Z</time>
      </trkpt>
      <trkpt lat="50.33261" lon="4.31145">
        <ele>197.21</ele>
        <time>2017-04-23T12:04:08Z</time>
      </trkpt>
      <trkpt lat="50.33235" lon="4.31138">
        <ele>196.73</ele>
        <time>2017-04-23T12:04:27Z</time>
      </trkpt>
      <trkpt lat="50.33215" lon="4.31137">
        <ele>195.77</ele>
        <time>2017-04-23T12:04:43Z</time>
      </trkpt>
      <trkpt lat="50.33207" lon="4.31134">
        <ele>195.77</ele>
        <time>2017-04-23T12:04:50Z</time>
      </trkpt>
      <trkpt lat="50.33205" lon="4.31133">
        <ele>195.77</ele>
        <time>2017-04-23T12:04:52Z</time>
      </trkpt>
      <trkpt lat="50.33198" lon="4.31135">
        <ele>195.77</ele>
        <time>2017-04-23T12:04:58Z</time>
      </trkpt>
      <trkpt lat="50.33189" lon="4.31133">
        <ele>195.28</ele>
        <time>2017-04-23T12:05:06Z</time>
      </trkpt>
      <trkpt lat="50.33168" lon="4.31129">
        <ele>194.32</ele>
        <time>2017-04-23T12:05:22Z</time>
      </trkpt>
      <trkpt lat="50.33149" lon="4.31129">
        <ele>193.84</ele>
        <time>2017-04-23T12:05:37Z</time>
      </trkpt>
      <trkpt lat="50.33126" lon="4.31131">
        <ele>192.88</ele>
        <time>2017-04-23T12:05:54Z</time>
      </trkpt>
      <trkpt lat="50.33105" lon="4.31131">
        <ele>192.4</ele>
        <time>2017-04-23T12:06:10Z</time>
      </trkpt>
      <trkpt lat="50.33083" lon="4.3113">
        <ele>192.4</ele>
        <time>2017-04-23T12:06:26Z</time>
      </trkpt>
      <trkpt lat="50.33062" lon="4.31126">
        <ele>191.44</ele>
        <time>2017-04-23T12:06:42Z</time>
      </trkpt>
      <trkpt lat="50.33044" lon="4.3112">
        <ele>191.44</ele>
        <time>2017-04-23T12:06:56Z</time>
      </trkpt>
      <trkpt lat="50.33024" lon="4.31111">
        <ele>190.48</ele>
        <time>2017-04-23T12:07:12Z</time>
      </trkpt>
      <trkpt lat="50.33018" lon="4.31108">
        <ele>190.48</ele>
        <time>2017-04-23T12:07:17Z</time>
      </trkpt>
      <trkpt lat="50.33001" lon="4.31097">
        <ele>189.04</ele>
        <time>2017-04-23T12:07:30Z</time>
      </trkpt>
      <trkpt lat="50.32982" lon="4.31087">
        <ele>188.08</ele>
        <time>2017-04-23T12:07:44Z</time>
      </trkpt>
      <trkpt lat="50.32961" lon="4.31084">
        <ele>187.11</ele>
        <time>2017-04-23T12:08:01Z</time>
      </trkpt>
      <trkpt lat="50.32944" lon="4.31087">
        <ele>186.63</ele>
        <time>2017-04-23T12:08:14Z</time>
      </trkpt>
      <trkpt lat="50.32921" lon="4.31099">
        <ele>186.15</ele>
        <time>2017-04-23T12:08:32Z</time>
      </trkpt>
      <trkpt lat="50.32901" lon="4.31112">
        <ele>185.67</ele>
        <time>2017-04-23T12:08:49Z</time>
      </trkpt>
      <trkpt lat="50.32886" lon="4.31127">
        <ele>185.67</ele>
        <time>2017-04-23T12:09:03Z</time>
      </trkpt>
      <trkpt lat="50.32861" lon="4.31142">
        <ele>185.67</ele>
        <time>2017-04-23T12:09:23Z</time>
      </trkpt>
      <trkpt lat="50.32833" lon="4.31154">
        <ele>185.19</ele>
        <time>2017-04-23T12:09:44Z</time>
      </trkpt>
      <trkpt lat="50.32808" lon="4.3116">
        <ele>185.19</ele>
        <time>2017-04-23T12:10:03Z</time>
      </trkpt>
      <trkpt lat="50.32785" lon="4.31167">
        <ele>184.71</ele>
        <time>2017-04-23T12:10:20Z</time>
      </trkpt>
      <trkpt lat="50.32759" lon="4.31173">
        <ele>184.71</ele>
        <time>2017-04-23T12:10:40Z</time>
      </trkpt>
      <trkpt lat="50.32734" lon="4.31178">
        <ele>184.23</ele>
        <time>2017-04-23T12:10:58Z</time>
      </trkpt>
      <trkpt lat="50.3271" lon="4.31179">
        <ele>184.23</ele>
        <time>2017-04-23T12:11:16Z</time>
      </trkpt>
      <trkpt lat="50.32688" lon="4.3117">
        <ele>183.27</ele>
        <time>2017-04-23T12:11:33Z</time>
      </trkpt>
      <trkpt lat="50.3267" lon="4.31158">
        <ele>181.83</ele>
        <time>2017-04-23T12:11:48Z</time>
      </trkpt>
      <trkpt lat="50.32647" lon="4.31141">
        <ele>180.87</ele>
        <time>2017-04-23T12:12:05Z</time>
      </trkpt>
      <trkpt lat="50.32633" lon="4.3113">
        <ele>180.38</ele>
        <time>2017-04-23T12:12:17Z</time>
      </trkpt>
      <trkpt lat="50.32628" lon="4.31126">
        <ele>179.9</ele>
        <time>2017-04-23T12:12:21Z</time>
      </trkpt>
      <trkpt lat="50.32605" lon="4.31109">
        <ele>179.42</ele>
        <time>2017-04-23T12:12:39Z</time>
      </trkpt>
      <trkpt lat="50.32583" lon="4.31094">
        <ele>178.46</ele>
        <time>2017-04-23T12:12:56Z</time>
      </trkpt>
      <trkpt lat="50.32559" lon="4.31082">
        <ele>177.98</ele>
        <time>2017-04-23T12:13:15Z</time>
      </trkpt>
      <trkpt lat="50.3254" lon="4.31056">
        <ele>177.5</ele>
        <time>2017-04-23T12:13:34Z</time>
      </trkpt>
      <trkpt lat="50.32526" lon="4.31026">
        <ele>177.5</ele>
        <time>2017-04-23T12:13:52Z</time>
      </trkpt>
      <trkpt lat="50.32518" lon="4.30993">
        <ele>177.5</ele>
        <time>2017-04-23T12:14:09Z</time>
      </trkpt>
      <trkpt lat="50.32512" lon="4.30962">
        <ele>176.06</ele>
        <time>2017-04-23T12:14:26Z</time>
      </trkpt>
      <trkpt lat="50.32507" lon="4.30934">
        <ele>174.14</ele>
        <time>2017-04-23T12:14:40Z</time>
      </trkpt>
      <trkpt lat="50.32507" lon="4.30894">
        <ele>172.69</ele>
        <time>2017-04-23T12:14:59Z</time>
      </trkpt>
      <trkpt lat="50.32508" lon="4.30856">
        <ele>170.77</ele>
        <time>2017-04-23T12:15:17Z</time>
      </trkpt>
      <trkpt lat="50.32505" lon="4.30823">
        <ele>169.33</ele>
        <time>2017-04-23T12:15:34Z</time>
      </trkpt>
      <trkpt lat="50.32491" lon="4.30797">
        <ele>167.41</ele>
        <time>2017-04-23T12:15:52Z</time>
      </trkpt>
      <trkpt lat="50.32472" lon="4.30778">
        <ele>166.93</ele>
        <time>2017-04-23T12:16:10Z</time>
      </trkpt>
      <trkpt lat="50.32451" lon="4.30757">
        <ele>166.45</ele>
        <time>2017-04-23T12:16:29Z</time>
      </trkpt>
      <trkpt lat="50.3243" lon="4.30735">
        <ele>165.48</ele>
        <time>2017-04-23T12:16:48Z</time>
      </trkpt>
      <trkpt lat="50.3241" lon="4.30731">
        <ele>165</ele>
        <time>2017-04-23T12:17:04Z</time>
      </trkpt>
      <trkpt lat="50.32388" lon="4.30735">
        <ele>165</ele>
        <time>2017-04-23T12:17:21Z</time>
      </trkpt>
      <trkpt lat="50.32368" lon="4.30743">
        <ele>165</ele>
        <time>2017-04-23T12:17:39Z</time>
      </trkpt>
      <trkpt lat="50.3235" lon="4.30751">
        <ele>165</ele>
        <time>2017-04-23T12:17:57Z</time>
      </trkpt>
      <trkpt lat="50.3233" lon="4.30771">
        <ele>164.52</ele>
        <time>2017-04-23T12:18:13Z</time>
      </trkpt>
      <trkpt lat="50.32311" lon="4.30794">
        <ele>163.56</ele>
        <time>2017-04-23T12:18:32Z</time>
      </trkpt>
      <trkpt lat="50.32295" lon="4.30813">
        <ele>162.12</ele>
        <time>2017-04-23T12:18:48Z</time>
      </trkpt>
      <trkpt lat="50.32294" lon="4.30814">
        <ele>162.12</ele>
        <time>2017-04-23T12:18:49Z</time>
      </trkpt>
      <trkpt lat="50.3228" lon="4.3083">
        <ele>161.64</ele>
        <time>2017-04-23T12:19:02Z</time>
      </trkpt>
      <trkpt lat="50.32258" lon="4.30852">
        <ele>161.16</ele>
        <time>2017-04-23T12:19:21Z</time>
      </trkpt>
      <trkpt lat="50.32242" lon="4.30863">
        <ele>159.72</ele>
        <time>2017-04-23T12:19:35Z</time>
      </trkpt>
      <trkpt lat="50.32238" lon="4.30878">
        <ele>158.75</ele>
        <time>2017-04-23T12:19:51Z</time>
      </trkpt>
      <trkpt lat="50.32235" lon="4.30893">
        <ele>158.75</ele>
        <time>2017-04-23T12:20:09Z</time>
      </trkpt>
      <trkpt lat="50.32235" lon="4.30889">
        <ele>158.75</ele>
        <time>2017-04-23T12:20:27Z</time>
      </trkpt>
      <trkpt lat="50.32235" lon="4.30887">
        <ele>158.75</ele>
        <time>2017-04-23T12:20:49Z</time>
      </trkpt>
    </trkseg>
  </trk>
</gpx>